Darstellungsparameter: Aktuell verwendete Einstellungen:
Skalierung der Graphiken ... ?
xyx+y,   Skalierungsfaktor:      Skalierung: Modus: x, Faktor: 1
Darstellungszeitraum ... ?
Vom - - bis: - -   Zeitraum: 23.08.2003 - 02.09.2003
Min/Max/Avg-Anzeige ... ?
Zeige MMA aktuell
Zeige MMA Monat
Zeige MMA alles
Zeige --A aktuell
Zeige --A Monat
Zeige --A alles
Keine MMA-Anzeige
MMA:
Average (ber die Originaldaten)
MMA-Basis: 23.08.2003 - 02.09.2003
Quicknavigation für Darstellung... ?
Tage:      1T, 2T, 3T, 5T -1T -2T -3T -5T +1T +2T +3T +5T
Wochen: 1W, 2W, 3W -1W -2W -3W +1W +2W +3W
Monate: 1M, 3M, 6M -1M -3M -6M +1M +3M +6M
Jahre:    1J, 3J, 5J, 10J -1J -3J -5J -10J +1J +3J +5J +10J
Nutze für die Darstellung ... ?
Originaldaten oder Mittelwerte auf ...
Stundenbasis Tagesbasis Wochenbasis
Monatsbasis Jahresbasis      Datenbasis: Original-Daten
Darstellen als:
Statistik (Auto) Statistik J:M      Darstellung:
Zur Graphik,    zurück zur Übersicht aller Sensoren.
 
Tabellarische Datenbersicht: ?
 
Sensor: Nr:Datum:Temp:Abs-Feuchte:Windchill:Wind:
Aussen-T/F 1 23-08-2003 00:07:04 19.1 C 9.67 g/m*3 19.1 C 0 km/h
2 23-08-2003 00:19:04 18.9 C 9.88 g/m*3 18.9 C 0 km/h
3 23-08-2003 00:31:04 18.9 C 9.88 g/m*3 18.9 C 0 km/h
4 23-08-2003 00:43:04 19 C 9.78 g/m*3 19 C 0 km/h
5 23-08-2003 00:55:04 19 C 9.78 g/m*3 19 C 0 km/h
6 23-08-2003 01:07:04 18.9 C 9.88 g/m*3 18.9 C 0 km/h
7 23-08-2003 01:19:04 18.8 C 9.99 g/m*3 18.8 C 0 km/h
8 23-08-2003 01:31:04 18.5 C 9.97 g/m*3 18.5 C 0 km/h
9 23-08-2003 01:43:04 18.3 C 10.01 g/m*3 18.3 C 0 km/h
10 23-08-2003 01:55:04 18.2 C 10.1 g/m*3 18.2 C 0 km/h
11 23-08-2003 02:07:04 18.1 C 10.04 g/m*3 18.1 C 0 km/h
12 23-08-2003 02:19:04 18.2 C 10.1 g/m*3 18.2 C 0 km/h
13 23-08-2003 02:31:04 18.1 C 10.04 g/m*3 18.1 C 0 km/h
14 23-08-2003 02:43:04 18.1 C 10.04 g/m*3 18.1 C 0 km/h
15 23-08-2003 02:55:04 17.8 C 10.17 g/m*3 17.8 C 0 km/h
16 23-08-2003 03:07:04 17.4 C 10.08 g/m*3 17.4 C 0 km/h
17 23-08-2003 03:19:04 17 C 9.98 g/m*3 17 C 0 km/h
18 23-08-2003 03:31:04 17 C 10.13 g/m*3 17 C 0 km/h
19 23-08-2003 03:43:04 16.8 C 10.29 g/m*3 16.8 C 0 km/h
20 23-08-2003 03:55:04 16.8 C 10.29 g/m*3 16.8 C 0 km/h
21 23-08-2003 04:07:04 16.9 C 10.21 g/m*3 16.9 C 0 km/h
22 23-08-2003 04:19:04 16.6 C 10.31 g/m*3 16.6 C 0 km/h
23 23-08-2003 04:31:04 16.6 C 10.31 g/m*3 16.6 C 0 km/h
24 23-08-2003 04:43:04 16.4 C 10.19 g/m*3 16.4 C 0 km/h
25 23-08-2003 04:55:04 16.4 C 10.33 g/m*3 16.4 C 0 km/h
Sensor: Nr:Datum:Temp:Abs-Feuchte:Windchill:Wind:
Aussen-T/F 26 23-08-2003 05:07:04 16.3 C 10.27 g/m*3 16.3 C 0 km/h
27 23-08-2003 05:19:04 16.2 C 10.2 g/m*3 16.2 C 0 km/h
28 23-08-2003 05:31:04 16.1 C 10.14 g/m*3 16.1 C 0 km/h
29 23-08-2003 05:43:04 16 C 10.22 g/m*3 16 C 0 km/h
30 23-08-2003 05:55:04 15.9 C 10.43 g/m*3 15.9 C 0 km/h
31 23-08-2003 06:07:04 15.8 C 10.36 g/m*3 15.8 C 0 km/h
32 23-08-2003 06:19:04 15.6 C 10.37 g/m*3 15.6 C 0 km/h
33 23-08-2003 06:31:04 15.5 C 10.31 g/m*3 15.5 C 0 km/h
34 23-08-2003 06:43:04 15.4 C 10.25 g/m*3 15.4 C 0 km/h
35 23-08-2003 06:55:04 15.4 C 10.38 g/m*3 15.4 C 0 km/h
36 23-08-2003 07:07:04 15.4 C 10.38 g/m*3 15.4 C 0 km/h
37 23-08-2003 07:19:04 15.4 C 10.38 g/m*3 15.4 C 0 km/h
38 23-08-2003 07:31:04 15.4 C 10.38 g/m*3 15.4 C 0 km/h
39 23-08-2003 07:43:04 15.6 C 10.37 g/m*3 15.6 C 0 km/h
40 23-08-2003 07:55:04 16 C 10.35 g/m*3 16 C 0 km/h
41 23-08-2003 08:07:04 16.2 C 10.34 g/m*3 16.2 C 0 km/h
42 23-08-2003 08:19:04 16.6 C 10.45 g/m*3 16.6 C 0 km/h
43 23-08-2003 08:31:04 16.9 C 10.5 g/m*3 16.9 C 0 km/h
44 23-08-2003 08:43:01 16.9 C 10.64 g/m*3 16.9 C 0 km/h
45 23-08-2003 08:55:01 17.2 C 10.54 g/m*3 17.2 C 0 km/h
46 23-08-2003 09:07:01 17.7 C 10.71 g/m*3 17.7 C 0 km/h
47 23-08-2003 09:19:01 18.1 C 10.82 g/m*3 18.1 C 0 km/h
48 23-08-2003 09:31:01 19 C 10.92 g/m*3 19 C 0 km/h
49 23-08-2003 09:43:01 19.4 C 10.84 g/m*3 19.4 C 0 km/h
50 23-08-2003 09:55:01 19.8 C 10.93 g/m*3 19.8 C 0 km/h
Sensor: Nr:Datum:Temp:Abs-Feuchte:Windchill:Wind:
Aussen-T/F 51 23-08-2003 10:07:02 20.2 C 10.67 g/m*3 20.2 C 0 km/h
52 23-08-2003 10:19:02 20.8 C 10.86 g/m*3 20.8 C 0 km/h
53 23-08-2003 10:31:02 21.8 C 10.74 g/m*3 21.8 C 0 km/h
54 23-08-2003 10:43:02 22.1 C 10.54 g/m*3 22.1 C 0 km/h
55 23-08-2003 10:55:02 22.5 C 10.79 g/m*3 22.5 C 0 km/h
56 23-08-2003 11:07:02 22.1 C 10.74 g/m*3 22.1 C 0 km/h
57 23-08-2003 11:19:02 22.1 C 10.93 g/m*3 22.1 C 0 km/h
58 23-08-2003 11:31:02 22.1 C 11.32 g/m*3 22.1 C 0 km/h
59 23-08-2003 11:43:01 23.5 C 10.79 g/m*3 23.5 C 0 km/h
60 23-08-2003 11:55:01 24 C 10.23 g/m*3 24 C 0 km/h
61 23-08-2003 12:07:02 24.2 C 10.56 g/m*3 24.2 C 0 km/h
62 23-08-2003 12:19:02 24.4 C 10.68 g/m*3 24.4 C 0 km/h
63 23-08-2003 12:31:02 25.4 C 10.83 g/m*3 25.4 C 0 km/h
64 23-08-2003 12:43:00 25.6 C 10.48 g/m*3 25.6 C 0 km/h
65 23-08-2003 12:55:00 25.7 C 10.53 g/m*3 25.7 C 0 km/h
66 23-08-2003 13:07:00 26.1 C 10.28 g/m*3 26.1 C 0 km/h
67 23-08-2003 13:19:00 25.9 C 10.89 g/m*3 25.9 C 0 km/h
68 23-08-2003 13:31:00 25.5 C 11.13 g/m*3 25.5 C 0 km/h
69 23-08-2003 13:43:01 25.2 C 11.64 g/m*3 25.2 C 0 km/h
70 23-08-2003 13:55:01 25 C 11.28 g/m*3 25 C 0 km/h
71 23-08-2003 14:07:02 25.2 C 10.71 g/m*3 25.2 C 0 km/h
72 23-08-2003 14:19:02 25.8 C 10.83 g/m*3 25.8 C 0 km/h
73 23-08-2003 14:31:02 26.5 C 10.76 g/m*3 26.5 C 0 km/h
74 23-08-2003 14:43:01 27.7 C 10.97 g/m*3 27.7 C 0 km/h
75 23-08-2003 14:55:01 28.3 C 10.78 g/m*3 28.3 C 0 km/h
Sensor: Nr:Datum:Temp:Abs-Feuchte:Windchill:Wind:
Aussen-T/F 76 23-08-2003 15:07:01 28.1 C 10.94 g/m*3 28.1 C 0 km/h
77 23-08-2003 15:19:01 28.6 C 10.68 g/m*3 28.6 C 0 km/h
78 23-08-2003 15:31:01 27.8 C 10.76 g/m*3 27.8 C 0 km/h
79 23-08-2003 15:43:01 27.5 C 10.85 g/m*3 27.5 C 0 km/h
80 23-08-2003 15:55:01 26.6 C 10.57 g/m*3 26.6 C 0 km/h
81 23-08-2003 16:07:02 26.5 C 10.51 g/m*3 26.5 C 0 km/h
82 23-08-2003 16:19:02 27.5 C 10.32 g/m*3 27.5 C 0 km/h
83 23-08-2003 16:31:02 27.5 C 10.85 g/m*3 27.5 C 0 km/h
84 23-08-2003 16:43:01 27.5 C 10.85 g/m*3 27.5 C 0 km/h
85 23-08-2003 16:55:01 27.4 C 11.05 g/m*3 27.4 C 0 km/h
86 23-08-2003 17:07:03 26.9 C 10.75 g/m*3 26.9 C 0 km/h
87 23-08-2003 17:19:03 27.2 C 10.41 g/m*3 27.2 C 0 km/h
88 23-08-2003 17:31:03 27.7 C 10.43 g/m*3 27.7 C 0 km/h
89 23-08-2003 17:43:01 27.9 C 10.55 g/m*3 27.9 C 0 km/h
90 23-08-2003 17:55:01 28 C 10.06 g/m*3 28 C 0 km/h
91 23-08-2003 18:07:01 27.6 C 10.38 g/m*3 27.6 C 0 km/h
92 23-08-2003 18:19:01 26.6 C 10.57 g/m*3 26.6 C 0 km/h
93 23-08-2003 18:31:01 26.3 C 10.64 g/m*3 26.3 C 0 km/h
94 23-08-2003 18:43:08 25.9 C 10.89 g/m*3 25.9 C 0 km/h
95 23-08-2003 18:55:08 25.5 C 10.89 g/m*3 25.5 C 0 km/h
96 23-08-2003 19:07:01 26.5 C 10.76 g/m*3 26.5 C 0 km/h
97 23-08-2003 19:19:01 27.2 C 10.93 g/m*3 27.2 C 0 km/h
98 23-08-2003 19:31:01 26.4 C 10.46 g/m*3 26.4 C 0 km/h
99 23-08-2003 19:43:01 26.2 C 10.59 g/m*3 26.2 C 0 km/h
100 23-08-2003 19:55:01 26.1 C 10.77 g/m*3 26.1 C 0 km/h
Sensor: Nr:Datum:Temp:Abs-Feuchte:Windchill:Wind:
Aussen-T/F 101 23-08-2003 20:07:01 25.5 C 11.36 g/m*3 25.5 C 0 km/h
102 23-08-2003 20:19:01 24.5 C 11.41 g/m*3 24.5 C 0 km/h
103 23-08-2003 20:31:01 24.5 C 11.64 g/m*3 24.5 C 0 km/h
104 23-08-2003 20:43:02 23.8 C 11.62 g/m*3 23.8 C 0 km/h
105 23-08-2003 20:55:02 23.9 C 11.68 g/m*3 23.9 C 0 km/h
106 23-08-2003 21:07:01 23.5 C 11.63 g/m*3 23.5 C 0 km/h
107 23-08-2003 21:19:01 23.3 C 11.71 g/m*3 23.3 C 0 km/h
108 23-08-2003 21:31:01 23.1 C 11.78 g/m*3 23.1 C 0 km/h
109 23-08-2003 21:44:01 22.7 C 11.72 g/m*3 22.7 C 0 km/h
110 23-08-2003 21:56:01 22.2 C 11.78 g/m*3 22.2 C 0 km/h
111 23-08-2003 22:08:01 22 C 12.03 g/m*3 22 C 0 km/h
112 23-08-2003 22:20:01 21.7 C 12.02 g/m*3 21.7 C 0 km/h
113 23-08-2003 22:32:01 21.5 C 11.88 g/m*3 21.5 C 0 km/h
114 23-08-2003 22:44:01 21.6 C 11.76 g/m*3 21.6 C 0 km/h
115 23-08-2003 22:56:01 21.6 C 11.95 g/m*3 21.6 C 0 km/h
116 23-08-2003 23:08:01 21.2 C 11.86 g/m*3 21.2 C 0 km/h
117 23-08-2003 23:20:01 20.9 C 12.02 g/m*3 20.9 C 0 km/h
118 23-08-2003 23:32:01 20.8 C 11.95 g/m*3 20.8 C 0 km/h
119 23-08-2003 23:44:01 20.7 C 12.06 g/m*3 20.7 C 0 km/h
120 23-08-2003 23:56:01 20.4 C 12.03 g/m*3 20.4 C 0 km/h
121 24-08-2003 00:08:01 20.3 C 11.96 g/m*3 20.3 C 0 km/h
122 24-08-2003 00:20:01 20.1 C 11.82 g/m*3 20.1 C 0 km/h
123 24-08-2003 00:32:01 20.1 C 11.99 g/m*3 20.1 C 0 km/h
124 24-08-2003 00:44:01 19.9 C 12.03 g/m*3 19.9 C 0 km/h
125 24-08-2003 00:56:01 20 C 11.92 g/m*3 20 C 0 km/h
Sensor: Nr:Datum:Temp:Abs-Feuchte:Windchill:Wind:
Aussen-T/F 126 24-08-2003 01:08:01 19.7 C 12.06 g/m*3 19.7 C 0 km/h
127 24-08-2003 01:20:01 19.5 C 11.92 g/m*3 19.5 C 0 km/h
128 24-08-2003 01:32:01 19.3 C 11.61 g/m*3 19.3 C 0 km/h
129 24-08-2003 01:44:01 19.3 C 11.61 g/m*3 19.3 C 0 km/h
130 24-08-2003 01:56:01 19.1 C 11.31 g/m*3 19.1 C 0 km/h
131 24-08-2003 02:08:01 19 C 11.24 g/m*3 19 C 0 km/h
132 24-08-2003 02:20:01 18.7 C 11.05 g/m*3 18.7 C 0 km/h
133 24-08-2003 02:32:01 18.6 C 10.98 g/m*3 18.6 C 0 km/h
134 24-08-2003 02:44:01 18.5 C 11.08 g/m*3 18.5 C 0 km/h
135 24-08-2003 02:56:01 18.2 C 10.88 g/m*3 18.2 C 0 km/h
136 24-08-2003 03:08:01 18.1 C 10.82 g/m*3 18.1 C 0 km/h
137 24-08-2003 03:20:01 17.8 C 10.93 g/m*3 17.8 C 0 km/h
138 24-08-2003 03:32:01 17.6 C 10.95 g/m*3 17.6 C 0 km/h
139 24-08-2003 03:44:01 17.4 C 10.82 g/m*3 17.4 C 0 km/h
140 24-08-2003 03:56:01 17.3 C 10.75 g/m*3 17.3 C 0 km/h
141 24-08-2003 04:08:01 17.1 C 10.77 g/m*3 17.1 C 0 km/h
142 24-08-2003 04:20:01 16.8 C 10.72 g/m*3 16.8 C 0 km/h
143 24-08-2003 04:32:01 16.6 C 10.74 g/m*3 16.6 C 0 km/h
144 24-08-2003 04:44:01 16.5 C 10.53 g/m*3 16.5 C 0 km/h
145 24-08-2003 04:56:01 16.3 C 10.54 g/m*3 16.3 C 0 km/h
146 24-08-2003 05:08:01 16.2 C 10.48 g/m*3 16.2 C 0 km/h
147 24-08-2003 05:20:01 16.1 C 10.42 g/m*3 16.1 C 0 km/h
148 24-08-2003 05:32:01 16 C 10.49 g/m*3 16 C 0 km/h
149 24-08-2003 05:44:01 15.7 C 10.3 g/m*3 15.7 C 0 km/h
150 24-08-2003 05:56:01 15.7 C 10.57 g/m*3 15.7 C 0 km/h
Sensor: Nr:Datum:Temp:Abs-Feuchte:Windchill:Wind:
Aussen-T/F 151 24-08-2003 06:08:01 15.4 C 10.25 g/m*3 15.4 C 0 km/h
152 24-08-2003 06:20:01 15.2 C 10.25 g/m*3 15.2 C 0 km/h
153 24-08-2003 06:32:01 15 C 10.13 g/m*3 15 C 0 km/h
154 24-08-2003 06:44:01 15 C 10.13 g/m*3 15 C 0 km/h
155 24-08-2003 06:56:01 14.8 C 10.13 g/m*3 14.8 C 0 km/h
156 24-08-2003 07:08:01 14.8 C 10.26 g/m*3 14.8 C 0 km/h
157 24-08-2003 07:20:01 14.8 C 10.26 g/m*3 14.8 C 0 km/h
158 24-08-2003 07:32:01 14.8 C 10.26 g/m*3 14.8 C 0 km/h
159 24-08-2003 07:44:01 14.8 C 10.13 g/m*3 14.8 C 0 km/h
160 24-08-2003 07:56:01 14.9 C 10.2 g/m*3 14.9 C 0 km/h
161 24-08-2003 08:08:01 15.1 C 10.32 g/m*3 15.1 C 0 km/h
162 24-08-2003 08:20:01 15.2 C 10.25 g/m*3 15.2 C 0 km/h
163 24-08-2003 08:32:01 15.4 C 10.25 g/m*3 15.4 C 0 km/h
164 24-08-2003 08:44:01 15.7 C 10.3 g/m*3 15.7 C 0 km/h
165 24-08-2003 08:56:01 16.1 C 10.42 g/m*3 16.1 C 0 km/h
166 24-08-2003 09:08:01 16.5 C 10.39 g/m*3 16.5 C 0 km/h
167 24-08-2003 09:20:01 16.8 C 10.44 g/m*3 16.8 C 0 km/h
168 24-08-2003 09:32:01 17.2 C 10.4 g/m*3 17.2 C 0 km/h
169 24-08-2003 09:44:01 17.4 C 10.23 g/m*3 17.4 C 0 km/h
170 24-08-2003 09:56:01 17.6 C 10.35 g/m*3 17.6 C 0 km/h
171 24-08-2003 10:08:02 18.1 C 10.2 g/m*3 18.1 C 0 km/h
172 24-08-2003 10:20:02 18.8 C 10.31 g/m*3 18.8 C 0 km/h
173 24-08-2003 10:32:01 19.3 C 10.12 g/m*3 19.3 C 0 km/h
174 24-08-2003 10:44:01 19.3 C 9.95 g/m*3 19.3 C 0 km/h
175 24-08-2003 10:56:01 19.8 C 9.74 g/m*3 19.8 C 0 km/h
Sensor: Nr:Datum:Temp:Abs-Feuchte:Windchill:Wind:
Aussen-T/F 176 24-08-2003 11:08:01 19.8 C 9.74 g/m*3 19.8 C 0 km/h
177 24-08-2003 11:20:01 20.4 C 9.38 g/m*3 20.4 C 0 km/h
178 24-08-2003 11:32:02 20.6 C 9.31 g/m*3 20.6 C 0 km/h
179 24-08-2003 11:44:02 21.1 C 9.21 g/m*3 21.1 C 0 km/h
180 24-08-2003 11:56:02 21.9 C 9.26 g/m*3 21.9 C 0 km/h
181 24-08-2003 12:08:02 22.5 C 9.19 g/m*3 22.5 C 0 km/h
182 24-08-2003 12:20:02 22.3 C 8.49 g/m*3 22.3 C 0 km/h
183 24-08-2003 12:32:48 22.6 C 8.64 g/m*3 22.6 C 0 km/h
184 24-08-2003 12:44:48 22.9 C 8.38 g/m*3 22.9 C 0 km/h
185 24-08-2003 12:56:01 22.6 C 7.83 g/m*3 22.6 C 0 km/h
186 24-08-2003 13:08:01 23.4 C 8.2 g/m*3 23.4 C 0 km/h
187 24-08-2003 13:20:01 24 C 7.61 g/m*3 24 C 0 km/h
188 24-08-2003 13:32:01 24 C 7.4 g/m*3 24 C 0 km/h
189 24-08-2003 13:44:01 24.5 C 7.16 g/m*3 24.5 C 0 km/h
190 24-08-2003 13:56:01 24.4 C 7.12 g/m*3 24.4 C 0 km/h
191 24-08-2003 14:08:01 25 C 7.14 g/m*3 25 C 0 km/h
192 24-08-2003 14:20:01 25.5 C 7.1 g/m*3 25.5 C 0 km/h
193 24-08-2003 14:32:01 25.8 C 7.22 g/m*3 25.8 C 0 km/h
194 24-08-2003 14:44:01 26.8 C 6.87 g/m*3 26.8 C 0 km/h
195 24-08-2003 14:56:01 27 C 6.95 g/m*3 27 C 0 km/h
196 24-08-2003 15:08:00 26.7 C 6.58 g/m*3 26.7 C 0 km/h
197 24-08-2003 15:20:00 26.8 C 6.87 g/m*3 26.8 C 0 km/h
198 24-08-2003 15:32:01 27.1 C 6.47 g/m*3 27.1 C 0 km/h
199 24-08-2003 15:44:01 27.8 C 6.72 g/m*3 27.8 C 0 km/h
200 24-08-2003 15:56:01 28.7 C 6.5 g/m*3 28.7 C 0 km/h
Sensor: Nr:Datum:Temp:Abs-Feuchte:Windchill:Wind:
Aussen-T/F 201 24-08-2003 16:08:01 27.8 C 6.19 g/m*3 27.8 C 0 km/h
202 24-08-2003 16:20:01 28.8 C 6.25 g/m*3 28.8 C 0 km/h
203 24-08-2003 16:32:01 28.1 C 6.02 g/m*3 28.1 C 0 km/h
204 24-08-2003 16:44:01 28 C 5.98 g/m*3 28 C 0 km/h
205 24-08-2003 16:56:01 28.7 C 6.22 g/m*3 28.7 C 0 km/h
206 24-08-2003 17:08:01 29.2 C 6.1 g/m*3 29.2 C 0 km/h
207 24-08-2003 17:20:01 28.3 C 6.08 g/m*3 28.3 C 0 km/h
208 24-08-2003 17:32:01 27.7 C 6.15 g/m*3 27.7 C 0 km/h
209 24-08-2003 17:44:01 28 C 6.25 g/m*3 28 C 0 km/h
210 24-08-2003 17:56:01 28.6 C 6.46 g/m*3 28.6 C 0 km/h
211 24-08-2003 18:08:02 28.6 C 6.74 g/m*3 28.6 C 0 km/h
212 24-08-2003 18:20:02 27.6 C 6.65 g/m*3 27.6 C 0 km/h
213 24-08-2003 18:32:01 27.3 C 6.54 g/m*3 27.3 C 0 km/h
214 24-08-2003 18:44:01 26.7 C 7.09 g/m*3 26.7 C 0 km/h
215 24-08-2003 18:56:01 27.2 C 7.55 g/m*3 27.2 C 0 km/h
216 24-08-2003 19:08:02 26 C 7.3 g/m*3 26 C 0 km/h
217 24-08-2003 19:20:02 25.5 C 7.81 g/m*3 25.5 C 0 km/h
218 24-08-2003 19:32:01 25.4 C 8 g/m*3 25.4 C 0 km/h
219 24-08-2003 19:44:01 25 C 8.06 g/m*3 25 C 0 km/h
220 24-08-2003 19:56:01 24.8 C 8.19 g/m*3 24.8 C 0 km/h
221 24-08-2003 20:08:02 23.4 C 8.2 g/m*3 23.4 C 0 km/h
222 24-08-2003 20:20:02 22.3 C 8.29 g/m*3 22.3 C 0 km/h
223 24-08-2003 20:32:01 21.6 C 8.53 g/m*3 21.6 C 0 km/h
224 24-08-2003 20:44:01 21.5 C 8.67 g/m*3 21.5 C 0 km/h
225 24-08-2003 20:56:01 21.3 C 8.57 g/m*3 21.3 C 0 km/h
Sensor: Nr:Datum:Temp:Abs-Feuchte:Windchill:Wind:
Aussen-T/F 226 24-08-2003 21:08:02 21 C 8.43 g/m*3 21 C 0 km/h
227 24-08-2003 21:20:02 20.6 C 8.59 g/m*3 20.6 C 0 km/h
228 24-08-2003 21:33:01 20.4 C 8.67 g/m*3 20.4 C 0 km/h
229 24-08-2003 21:45:01 20.3 C 8.62 g/m*3 20.3 C 0 km/h
230 24-08-2003 21:57:01 19.9 C 8.59 g/m*3 19.9 C 0 km/h
231 24-08-2003 22:09:01 19.5 C 8.73 g/m*3 19.5 C 0 km/h
232 24-08-2003 22:21:01 19.1 C 8.69 g/m*3 19.1 C 0 km/h
233 24-08-2003 22:33:01 18.7 C 8.65 g/m*3 18.7 C 0 km/h
234 24-08-2003 22:45:01 18.1 C 8.5 g/m*3 18.1 C 0 km/h
235 24-08-2003 22:57:01 17.7 C 8.6 g/m*3 17.7 C 0 km/h
236 24-08-2003 23:09:01 17.4 C 8.45 g/m*3 17.4 C 0 km/h
237 24-08-2003 23:21:01 17.2 C 8.49 g/m*3 17.2 C 0 km/h
238 24-08-2003 23:33:01 16.9 C 8.63 g/m*3 16.9 C 0 km/h
239 24-08-2003 23:45:01 16.5 C 8.71 g/m*3 16.5 C 0 km/h
240 24-08-2003 23:57:01 16.4 C 8.79 g/m*3 16.4 C 0 km/h
241 25-08-2003 00:09:01 16.2 C 8.55 g/m*3 16.2 C 0 km/h
242 25-08-2003 00:21:01 15.9 C 8.67 g/m*3 15.9 C 0 km/h
243 25-08-2003 00:33:01 15.7 C 8.7 g/m*3 15.7 C 0 km/h
244 25-08-2003 00:45:01 15.4 C 8.67 g/m*3 15.4 C 0 km/h
245 25-08-2003 00:57:01 15.4 C 8.67 g/m*3 15.4 C 0 km/h
246 25-08-2003 01:09:01 15.3 C 8.62 g/m*3 15.3 C 0 km/h
247 25-08-2003 01:21:01 15.1 C 8.64 g/m*3 15.1 C 0 km/h
248 25-08-2003 01:33:01 15.1 C 8.64 g/m*3 15.1 C 0 km/h
249 25-08-2003 01:45:01 15 C 8.59 g/m*3 15 C 0 km/h
250 25-08-2003 01:57:01 14.8 C 8.61 g/m*3 14.8 C 0 km/h
Sensor: Nr:Datum:Temp:Abs-Feuchte:Windchill:Wind:
Aussen-T/F 251 25-08-2003 02:09:01 14.5 C 8.58 g/m*3 14.5 C 0 km/h
252 25-08-2003 02:21:01 14.3 C 8.6 g/m*3 14.3 C 0 km/h
253 25-08-2003 02:33:01 14.2 C 8.67 g/m*3 14.2 C 0 km/h
254 25-08-2003 02:45:01 14.2 C 8.55 g/m*3 14.2 C 0 km/h
255 25-08-2003 02:57:01 14.2 C 8.79 g/m*3 14.2 C 0 km/h
256 25-08-2003 03:09:01 13.9 C 8.75 g/m*3 13.9 C 0 km/h
257 25-08-2003 03:21:01 13.7 C 8.76 g/m*3 13.7 C 0 km/h
258 25-08-2003 03:33:01 13.3 C 8.55 g/m*3 13.3 C 0 km/h
259 25-08-2003 03:45:01 13.3 C 8.66 g/m*3 13.3 C 0 km/h
260 25-08-2003 03:57:01 13.2 C 8.73 g/m*3 13.2 C 0 km/h
261 25-08-2003 04:09:01 13 C 8.62 g/m*3 13 C 0 km/h
262 25-08-2003 04:21:01 13 C 8.73 g/m*3 13 C 0 km/h
263 25-08-2003 04:33:01 12.9 C 8.79 g/m*3 12.9 C 0 km/h
264 25-08-2003 04:45:01 12.7 C 8.79 g/m*3 12.7 C 0 km/h
265 25-08-2003 04:57:01 12.5 C 8.69 g/m*3 12.5 C 0 km/h
266 25-08-2003 05:09:01 12.4 C 8.74 g/m*3 12.4 C 0 km/h
267 25-08-2003 05:21:01 12.2 C 8.63 g/m*3 12.2 C 0 km/h
268 25-08-2003 05:33:01 12.1 C 8.69 g/m*3 12.1 C 0 km/h
269 25-08-2003 05:45:01 12 C 8.74 g/m*3 12 C 0 km/h
270 25-08-2003 05:57:01 11.8 C 8.63 g/m*3 11.8 C 0 km/h
271 25-08-2003 06:09:01 11.8 C 8.63 g/m*3 11.8 C 0 km/h
272 25-08-2003 06:21:01 11.6 C 8.63 g/m*3 11.6 C 0 km/h
273 25-08-2003 06:33:01 11.4 C 8.52 g/m*3 11.4 C 0 km/h
274 25-08-2003 06:45:01 11.4 C 8.62 g/m*3 11.4 C 0 km/h
275 25-08-2003 06:57:01 11.4 C 8.62 g/m*3 11.4 C 0 km/h
Sensor: Nr:Datum:Temp:Abs-Feuchte:Windchill:Wind:
Aussen-T/F 276 25-08-2003 07:09:01 11.4 C 8.72 g/m*3 11.4 C 0 km/h
277 25-08-2003 07:21:01 11.4 C 8.62 g/m*3 11.4 C 0 km/h
278 25-08-2003 07:33:01 11.5 C 8.68 g/m*3 11.5 C 0 km/h
279 25-08-2003 07:45:01 11.6 C 8.73 g/m*3 11.6 C 0 km/h
280 25-08-2003 07:57:01 11.7 C 8.79 g/m*3 11.7 C 0 km/h
281 25-08-2003 08:09:00 11.9 C 8.9 g/m*3 11.9 C 0 km/h
282 25-08-2003 08:21:00 12.2 C 9.06 g/m*3 12.2 C 0 km/h
283 25-08-2003 08:33:01 12.5 C 9.13 g/m*3 12.5 C 0 km/h
284 25-08-2003 08:45:01 12.9 C 9.13 g/m*3 12.9 C 0 km/h
285 25-08-2003 08:57:01 13.3 C 8.9 g/m*3 13.3 C 0 km/h
286 25-08-2003 09:09:01 13.7 C 8.88 g/m*3 13.7 C 0 km/h
287 25-08-2003 09:21:01 14 C 8.93 g/m*3 14 C 0 km/h
288 25-08-2003 09:33:01 14.7 C 8.94 g/m*3 14.7 C 0 km/h
289 25-08-2003 09:45:01 15.2 C 9.22 g/m*3 15.2 C 0 km/h
290 25-08-2003 09:57:01 15.7 C 9.1 g/m*3 15.7 C 0 km/h
291 25-08-2003 10:09:01 16.4 C 9.21 g/m*3 16.4 C 0 km/h
292 25-08-2003 10:21:01 17.1 C 9.17 g/m*3 17.1 C 0 km/h
293 25-08-2003 10:33:02 17.7 C 9.51 g/m*3 17.7 C 0 km/h
294 25-08-2003 10:45:02 18.1 C 9.12 g/m*3 18.1 C 0 km/h
295 25-08-2003 10:57:02 19.1 C 8.69 g/m*3 19.1 C 0 km/h
296 25-08-2003 11:09:02 20 C 8.3 g/m*3 20 C 0 km/h
297 25-08-2003 11:21:02 20.5 C 8.19 g/m*3 20.5 C 0 km/h
298 25-08-2003 11:33:01 21.1 C 7.92 g/m*3 21.1 C 0 km/h
299 25-08-2003 11:45:01 21.8 C 8.06 g/m*3 21.8 C 0 km/h
300 25-08-2003 11:57:01 22 C 7.76 g/m*3 22 C 0 km/h
Sensor: Nr:Datum:Temp:Abs-Feuchte:Windchill:Wind:
Aussen-T/F 301 25-08-2003 12:09:01 22.5 C 7.79 g/m*3 22.5 C 0 km/h
302 25-08-2003 12:21:01 22.6 C 7.63 g/m*3 22.6 C 0 km/h
303 25-08-2003 12:33:02 23 C 7.6 g/m*3 23 C 0 km/h
304 25-08-2003 12:45:02 23.3 C 7.53 g/m*3 23.3 C 0 km/h
305 25-08-2003 12:57:02 23.9 C 7.79 g/m*3 23.9 C 0 km/h
306 25-08-2003 13:09:02 24.3 C 7.75 g/m*3 24.3 C 0 km/h
307 25-08-2003 13:21:02 24.4 C 7.57 g/m*3 24.4 C 0 km/h
308 25-08-2003 13:33:01 25.1 C 7.41 g/m*3 25.1 C 0 km/h
309 25-08-2003 13:45:01 25.1 C 7.18 g/m*3 25.1 C 0 km/h
310 25-08-2003 13:57:01 26 C 7.55 g/m*3 26 C 0 km/h
311 25-08-2003 14:09:01 26.4 C 7.47 g/m*3 26.4 C 0 km/h
312 25-08-2003 14:21:01 26.2 C 7.14 g/m*3 26.2 C 0 km/h
313 25-08-2003 14:33:01 27.4 C 7.63 g/m*3 27.4 C 0 km/h
314 25-08-2003 14:45:01 27.5 C 7.14 g/m*3 27.5 C 0 km/h
315 25-08-2003 14:57:01 28.6 C 7.31 g/m*3 28.6 C 0 km/h
316 25-08-2003 15:09:01 29.1 C 6.93 g/m*3 29.1 C 0 km/h
317 25-08-2003 15:21:01 28.8 C 7.1 g/m*3 28.8 C 0 km/h
318 25-08-2003 15:33:01 29.5 C 6.79 g/m*3 29.5 C 0 km/h
319 25-08-2003 15:45:01 29 C 6.89 g/m*3 29 C 0 km/h
320 25-08-2003 15:57:01 29.7 C 6.86 g/m*3 29.7 C 0 km/h
321 25-08-2003 16:09:01 30 C 6.67 g/m*3 30 C 0 km/h
322 25-08-2003 16:21:01 30.3 C 6.78 g/m*3 30.3 C 0 km/h
323 25-08-2003 16:33:01 29.1 C 6.35 g/m*3 29.1 C 0 km/h
324 25-08-2003 16:45:01 29.6 C 6.53 g/m*3 29.6 C 0 km/h
325 25-08-2003 16:57:01 30.6 C 6.26 g/m*3 30.6 C 0 km/h
Sensor: Nr:Datum:Temp:Abs-Feuchte:Windchill:Wind:
Aussen-T/F 326 25-08-2003 17:09:01 31 C 6.4 g/m*3 31 C 0 km/h
327 25-08-2003 17:21:01 31.4 C 6.54 g/m*3 31.4 C 0 km/h
328 25-08-2003 17:33:02 31.2 C 6.47 g/m*3 31.2 C 0 km/h
329 25-08-2003 17:45:02 31.2 C 6.47 g/m*3 31.2 C 0 km/h
330 25-08-2003 17:57:02 31.3 C 6.5 g/m*3 31.3 C 0 km/h
331 25-08-2003 18:09:01 31.4 C 6.54 g/m*3 31.4 C 0 km/h
332 25-08-2003 18:21:01 31.4 C 6.54 g/m*3 31.4 C 0 km/h
333 25-08-2003 18:33:01 30.6 C 6.26 g/m*3 30.6 C 0 km/h
334 25-08-2003 18:45:01 30.6 C 6.26 g/m*3 30.6 C 0 km/h
335 25-08-2003 18:57:01 30.8 C 6.33 g/m*3 30.8 C 0 km/h
336 25-08-2003 19:09:02 30.4 C 6.51 g/m*3 30.4 C 0 km/h
337 25-08-2003 19:21:02 30 C 6.37 g/m*3 30 C 0 km/h
338 25-08-2003 19:33:02 29.4 C 6.75 g/m*3 29.4 C 0 km/h
339 25-08-2003 19:45:02 28.9 C 7.14 g/m*3 28.9 C 0 km/h
340 25-08-2003 19:57:02 27.7 C 6.69 g/m*3 27.7 C 0 km/h
341 25-08-2003 20:09:01 26.4 C 7.22 g/m*3 26.4 C 0 km/h
342 25-08-2003 20:21:01 25.1 C 6.94 g/m*3 25.1 C 0 km/h
343 25-08-2003 20:33:01 24 C 6.96 g/m*3 24 C 0 km/h
344 25-08-2003 20:45:01 23.3 C 6.9 g/m*3 23.3 C 0 km/h
345 25-08-2003 20:57:01 23 C 7.4 g/m*3 23 C 0 km/h
346 25-08-2003 21:09:01 22.3 C 7.11 g/m*3 22.3 C 0 km/h
347 25-08-2003 21:21:01 21.4 C 7.12 g/m*3 21.4 C 0 km/h
348 25-08-2003 21:33:00 21.1 C 7.19 g/m*3 21.1 C 0 km/h
349 25-08-2003 21:45:00 20.9 C 7.29 g/m*3 20.9 C 0 km/h
350 25-08-2003 21:57:00 20.6 C 7.52 g/m*3 20.6 C 0 km/h
Sensor: Nr:Datum:Temp:Abs-Feuchte:Windchill:Wind:
Aussen-T/F 351 25-08-2003 22:10:01 20.1 C 7.47 g/m*3 20.1 C 0 km/h
352 25-08-2003 22:22:01 20 C 7.6 g/m*3 20 C 0 km/h
353 25-08-2003 22:34:01 19.6 C 7.77 g/m*3 19.6 C 0 km/h
354 25-08-2003 22:46:01 19.4 C 7.84 g/m*3 19.4 C 0 km/h
355 25-08-2003 22:58:01 19 C 7.82 g/m*3 19 C 0 km/h
356 25-08-2003 23:10:01 18.8 C 8.05 g/m*3 18.8 C 0 km/h
357 25-08-2003 23:22:01 18.7 C 8.01 g/m*3 18.7 C 0 km/h
358 25-08-2003 23:34:01 18.4 C 8.18 g/m*3 18.4 C 0 km/h
359 25-08-2003 23:46:01 18.2 C 8.24 g/m*3 18.2 C 0 km/h
360 25-08-2003 23:58:01 18.2 C 8.39 g/m*3 18.2 C 0 km/h
361 26-08-2003 00:10:01 17.9 C 8.4 g/m*3 17.9 C 0 km/h
362 26-08-2003 00:22:01 17.8 C 8.5 g/m*3 17.8 C 0 km/h
363 26-08-2003 00:34:01 17.3 C 8.4 g/m*3 17.3 C 0 km/h
364 26-08-2003 00:46:01 17.3 C 8.54 g/m*3 17.3 C 0 km/h
365 26-08-2003 00:58:01 16.8 C 8.58 g/m*3 16.8 C 0 km/h
366 26-08-2003 01:10:01 16.4 C 8.65 g/m*3 16.4 C 0 km/h
367 26-08-2003 01:22:01 16.4 C 8.79 g/m*3 16.4 C 0 km/h
368 26-08-2003 01:34:01 16.3 C 8.6 g/m*3 16.3 C 0 km/h
369 26-08-2003 01:46:01 16.1 C 8.77 g/m*3 16.1 C 0 km/h
370 26-08-2003 01:58:01 15.8 C 8.88 g/m*3 15.8 C 0 km/h
371 26-08-2003 02:10:01 15.7 C 8.96 g/m*3 15.7 C 0 km/h
372 26-08-2003 02:22:01 15.5 C 8.72 g/m*3 15.5 C 0 km/h
373 26-08-2003 02:34:01 15.2 C 8.83 g/m*3 15.2 C 0 km/h
374 26-08-2003 02:46:01 15 C 8.72 g/m*3 15 C 0 km/h
375 26-08-2003 02:58:01 14.8 C 8.99 g/m*3 14.8 C 0 km/h
Sensor: Nr:Datum:Temp:Abs-Feuchte:Windchill:Wind:
Aussen-T/F 376 26-08-2003 03:10:01 14.7 C 8.94 g/m*3 14.7 C 0 km/h
377 26-08-2003 03:22:01 14.5 C 8.83 g/m*3 14.5 C 0 km/h
378 26-08-2003 03:34:01 14.4 C 8.9 g/m*3 14.4 C 0 km/h
379 26-08-2003 03:46:01 14.1 C 8.86 g/m*3 14.1 C 0 km/h
380 26-08-2003 03:58:01 14.2 C 9.04 g/m*3 14.2 C 0 km/h
381 26-08-2003 04:10:01 13.9 C 8.99 g/m*3 13.9 C 0 km/h
382 26-08-2003 04:22:01 13.7 C 9 g/m*3 13.7 C 0 km/h
383 26-08-2003 04:34:01 13.5 C 8.89 g/m*3 13.5 C 0 km/h
384 26-08-2003 04:46:01 13.3 C 8.9 g/m*3 13.3 C 0 km/h
385 26-08-2003 04:58:01 13.2 C 8.84 g/m*3 13.2 C 0 km/h
386 26-08-2003 05:10:01 13.1 C 8.79 g/m*3 13.1 C 0 km/h
387 26-08-2003 05:22:01 13 C 8.73 g/m*3 13 C 0 km/h
388 26-08-2003 05:34:01 12.9 C 8.9 g/m*3 12.9 C 0 km/h
389 26-08-2003 05:46:01 12.5 C 8.69 g/m*3 12.5 C 0 km/h
390 26-08-2003 05:58:01 12.4 C 8.63 g/m*3 12.4 C 0 km/h
391 26-08-2003 06:10:01 12.4 C 8.74 g/m*3 12.4 C 0 km/h
392 26-08-2003 06:22:01 12.3 C 8.8 g/m*3 12.3 C 0 km/h
393 26-08-2003 06:34:01 12.2 C 8.63 g/m*3 12.2 C 0 km/h
394 26-08-2003 06:46:01 12.1 C 8.69 g/m*3 12.1 C 0 km/h
395 26-08-2003 06:58:01 12 C 8.74 g/m*3 12 C 0 km/h
396 26-08-2003 07:10:01 12.1 C 8.79 g/m*3 12.1 C 0 km/h
397 26-08-2003 07:22:01 12.1 C 8.69 g/m*3 12.1 C 0 km/h
398 26-08-2003 07:34:01 12.1 C 8.79 g/m*3 12.1 C 0 km/h
399 26-08-2003 07:46:01 12.1 C 8.79 g/m*3 12.1 C 0 km/h
400 26-08-2003 07:58:01 12.1 C 8.79 g/m*3 12.1 C 0 km/h
Sensor: Nr:Datum:Temp:Abs-Feuchte:Windchill:Wind:
Aussen-T/F 401 26-08-2003 08:10:01 12.3 C 8.9 g/m*3 12.3 C 0 km/h
402 26-08-2003 08:22:01 12.6 C 9.07 g/m*3 12.6 C 0 km/h
403 26-08-2003 08:34:01 12.8 C 9.07 g/m*3 12.8 C 0 km/h
404 26-08-2003 08:46:01 13.1 C 9.13 g/m*3 13.1 C 0 km/h
405 26-08-2003 08:58:01 13.4 C 9.18 g/m*3 13.4 C 0 km/h
406 26-08-2003 09:10:01 13.7 C 9.35 g/m*3 13.7 C 0 km/h
407 26-08-2003 09:22:01 14.3 C 9.58 g/m*3 14.3 C 0 km/h
408 26-08-2003 09:34:02 14.8 C 9.5 g/m*3 14.8 C 0 km/h
409 26-08-2003 09:46:02 15.5 C 9.39 g/m*3 15.5 C 0 km/h
410 26-08-2003 09:58:02 16.2 C 9.38 g/m*3 16.2 C 0 km/h
411 26-08-2003 10:10:02 17 C 9.55 g/m*3 17 C 0 km/h
412 26-08-2003 10:22:02 17.5 C 9.54 g/m*3 17.5 C 0 km/h
413 26-08-2003 10:34:01 18.2 C 9.48 g/m*3 18.2 C 0 km/h
414 26-08-2003 10:46:01 18.9 C 9.4 g/m*3 18.9 C 0 km/h
415 26-08-2003 10:58:01 19.6 C 9.28 g/m*3 19.6 C 0 km/h
416 26-08-2003 11:10:02 20.4 C 9.2 g/m*3 20.4 C 0 km/h
417 26-08-2003 11:22:02 20.8 C 8.51 g/m*3 20.8 C 0 km/h
418 26-08-2003 11:34:01 21.4 C 8.44 g/m*3 21.4 C 0 km/h
419 26-08-2003 11:46:01 22.3 C 8.1 g/m*3 22.3 C 0 km/h
420 26-08-2003 11:58:01 22.9 C 8.58 g/m*3 22.9 C 0 km/h
421 26-08-2003 12:10:01 23.6 C 8.72 g/m*3 23.6 C 0 km/h
422 26-08-2003 12:22:01 24.1 C 8.31 g/m*3 24.1 C 0 km/h
423 26-08-2003 12:34:01 24.3 C 8.19 g/m*3 24.3 C 0 km/h
424 26-08-2003 12:46:01 25.1 C 7.64 g/m*3 25.1 C 0 km/h
425 26-08-2003 12:58:01 25.6 C 7.14 g/m*3 25.6 C 0 km/h
Sensor: Nr:Datum:Temp:Abs-Feuchte:Windchill:Wind:
Aussen-T/F 426 26-08-2003 13:10:01 25.8 C 6.98 g/m*3 25.8 C 0 km/h
427 26-08-2003 13:22:01 26.5 C 6.51 g/m*3 26.5 C 0 km/h
428 26-08-2003 13:34:01 27.1 C 5.69 g/m*3 27.1 C 0 km/h
429 26-08-2003 13:46:01 26.9 C 5.89 g/m*3 26.9 C 0 km/h
430 26-08-2003 13:58:01 26.8 C 5.85 g/m*3 26.8 C 0 km/h
431 26-08-2003 14:10:02 27.7 C 6.15 g/m*3 27.7 C 0 km/h
432 26-08-2003 14:22:02 28.5 C 5.87 g/m*3 28.5 C 0 km/h
433 26-08-2003 14:34:01 29 C 6.03 g/m*3 29 C 0 km/h
434 26-08-2003 14:46:01 29.4 C 5.87 g/m*3 29.4 C 0 km/h
435 26-08-2003 14:58:01 30 C 6.06 g/m*3 30 C 0 km/h
436 26-08-2003 15:10:02 30.4 C 6.2 g/m*3 30.4 C 0 km/h
437 26-08-2003 15:22:02 30 C 6.06 g/m*3 30 C 0 km/h
438 26-08-2003 15:34:00 28.8 C 5.68 g/m*3 28.8 C 0 km/h
439 26-08-2003 15:46:00 30.1 C 6.1 g/m*3 30.1 C 0 km/h
440 26-08-2003 15:58:00 30.7 C 6.3 g/m*3 30.7 C 0 km/h
441 26-08-2003 16:10:01 30.8 C 6.33 g/m*3 30.8 C 0 km/h
442 26-08-2003 16:22:01 30.6 C 6.26 g/m*3 30.6 C 0 km/h
443 26-08-2003 16:34:01 30.4 C 6.2 g/m*3 30.4 C 0 km/h
444 26-08-2003 16:46:01 30.9 C 6.37 g/m*3 30.9 C 0 km/h
445 26-08-2003 16:58:01 30 C 6.37 g/m*3 30 C 0 km/h
446 26-08-2003 17:10:01 30.6 C 6.26 g/m*3 30.6 C 0 km/h
447 26-08-2003 17:22:01 30.4 C 6.2 g/m*3 30.4 C 0 km/h
448 26-08-2003 17:34:01 31 C 6.4 g/m*3 31 C 0 km/h
449 26-08-2003 17:46:01 31.2 C 6.47 g/m*3 31.2 C 0 km/h
450 26-08-2003 17:58:01 30.9 C 6.68 g/m*3 30.9 C 0 km/h
Sensor: Nr:Datum:Temp:Abs-Feuchte:Windchill:Wind:
Aussen-T/F 451 26-08-2003 18:10:02 30.7 C 6.61 g/m*3 30.7 C 0 km/h
452 26-08-2003 18:22:02 30 C 7.58 g/m*3 30 C 0 km/h
453 26-08-2003 18:34:02 29 C 7.47 g/m*3 29 C 0 km/h
454 26-08-2003 18:46:02 29.5 C 7.38 g/m*3 29.5 C 0 km/h
455 26-08-2003 18:58:02 29 C 6.89 g/m*3 29 C 0 km/h
456 26-08-2003 19:10:02 28.7 C 7.06 g/m*3 28.7 C 0 km/h
457 26-08-2003 19:22:02 27.5 C 7.14 g/m*3 27.5 C 0 km/h
458 26-08-2003 19:34:01 26.9 C 7.68 g/m*3 26.9 C 0 km/h
459 26-08-2003 19:46:01 26.8 C 7.64 g/m*3 26.8 C 0 km/h
460 26-08-2003 19:58:01 25.8 C 7.46 g/m*3 25.8 C 0 km/h
461 26-08-2003 20:10:01 25.2 C 7.45 g/m*3 25.2 C 0 km/h
462 26-08-2003 20:22:01 24.7 C 7.7 g/m*3 24.7 C 0 km/h
463 26-08-2003 20:34:00 24.2 C 7.92 g/m*3 24.2 C 0 km/h
464 26-08-2003 20:46:00 23.9 C 7.79 g/m*3 23.9 C 0 km/h
465 26-08-2003 20:58:00 23.4 C 7.99 g/m*3 23.4 C 0 km/h
466 26-08-2003 21:10:01 22.9 C 8.38 g/m*3 22.9 C 0 km/h
467 26-08-2003 21:22:01 22.4 C 8.34 g/m*3 22.4 C 0 km/h
468 26-08-2003 21:34:00 21.9 C 8.68 g/m*3 21.9 C 0 km/h
469 26-08-2003 21:46:00 21.5 C 8.67 g/m*3 21.5 C 0 km/h
470 26-08-2003 21:58:00 21 C 8.61 g/m*3 21 C 0 km/h
471 26-08-2003 22:11:02 20.6 C 8.77 g/m*3 20.6 C 0 km/h
472 26-08-2003 22:23:02 20.5 C 8.72 g/m*3 20.5 C 0 km/h
473 26-08-2003 22:35:02 20.3 C 8.79 g/m*3 20.3 C 0 km/h
474 26-08-2003 22:47:02 20.1 C 8.87 g/m*3 20.1 C 0 km/h
475 26-08-2003 22:59:02 20.1 C 8.87 g/m*3 20.1 C 0 km/h
Sensor: Nr:Datum:Temp:Abs-Feuchte:Windchill:Wind:
Aussen-T/F 476 26-08-2003 23:11:02 19.9 C 9.11 g/m*3 19.9 C 0 km/h
477 26-08-2003 23:23:02 19.6 C 8.95 g/m*3 19.6 C 0 km/h
478 26-08-2003 23:35:02 19.5 C 9.06 g/m*3 19.5 C 0 km/h
479 26-08-2003 23:47:02 19.1 C 9.02 g/m*3 19.1 C 0 km/h
480 26-08-2003 23:59:02 18.9 C 9.07 g/m*3 18.9 C 0 km/h
481 27-08-2003 00:11:02 18.7 C 9.13 g/m*3 18.7 C 0 km/h
482 27-08-2003 00:23:02 18.5 C 9.18 g/m*3 18.5 C 0 km/h
483 27-08-2003 00:35:02 18.2 C 9.17 g/m*3 18.2 C 0 km/h
484 27-08-2003 00:47:02 18 C 9.22 g/m*3 18 C 0 km/h
485 27-08-2003 00:59:02 17.8 C 9.41 g/m*3 17.8 C 0 km/h
486 27-08-2003 01:11:02 18.1 C 9.43 g/m*3 18.1 C 0 km/h
487 27-08-2003 01:23:02 18.3 C 9.38 g/m*3 18.3 C 0 km/h
488 27-08-2003 01:35:02 18.3 C 9.38 g/m*3 18.3 C 0 km/h
489 27-08-2003 01:47:02 18.1 C 9.27 g/m*3 18.1 C 0 km/h
490 27-08-2003 01:59:02 17.9 C 9.31 g/m*3 17.9 C 0 km/h
491 27-08-2003 02:11:02 17.7 C 9.35 g/m*3 17.7 C 0 km/h
492 27-08-2003 02:23:02 17.5 C 9.24 g/m*3 17.5 C 0 km/h
493 27-08-2003 02:35:02 17.2 C 9.23 g/m*3 17.2 C 0 km/h
494 27-08-2003 02:47:02 17.1 C 9.32 g/m*3 17.1 C 0 km/h
495 27-08-2003 02:59:02 16.8 C 9.44 g/m*3 16.8 C 0 km/h
496 27-08-2003 03:11:02 16.6 C 9.46 g/m*3 16.6 C 0 km/h
497 27-08-2003 03:23:02 16.4 C 9.35 g/m*3 16.4 C 0 km/h
498 27-08-2003 03:35:02 16.2 C 9.52 g/m*3 16.2 C 0 km/h
499 27-08-2003 03:47:02 16.1 C 9.46 g/m*3 16.1 C 0 km/h
500 27-08-2003 03:59:02 15.7 C 9.63 g/m*3 15.7 C 0 km/h
Sensor: Nr:Datum:Temp:Abs-Feuchte:Windchill:Wind:
Aussen-T/F 501 27-08-2003 04:11:02 15.5 C 9.65 g/m*3 15.5 C 0 km/h
502 27-08-2003 04:23:02 15.3 C 9.53 g/m*3 15.3 C 0 km/h
503 27-08-2003 04:35:02 15.1 C 9.55 g/m*3 15.1 C 0 km/h
504 27-08-2003 04:47:02 14.8 C 9.75 g/m*3 14.8 C 0 km/h
505 27-08-2003 04:59:02 14.8 C 9.75 g/m*3 14.8 C 0 km/h
506 27-08-2003 05:11:02 14.5 C 9.7 g/m*3 14.5 C 0 km/h
507 27-08-2003 05:23:02 14.3 C 9.71 g/m*3 14.3 C 0 km/h
508 27-08-2003 05:35:02 14.5 C 9.7 g/m*3 14.5 C 0 km/h
509 27-08-2003 05:47:02 14.9 C 9.81 g/m*3 14.9 C 0 km/h
510 27-08-2003 05:59:02 15.1 C 9.55 g/m*3 15.1 C 0 km/h
511 27-08-2003 06:11:02 15 C 9.49 g/m*3 15 C 0 km/h
512 27-08-2003 06:23:02 15 C 9.49 g/m*3 15 C 0 km/h
513 27-08-2003 06:35:02 14.7 C 9.57 g/m*3 14.7 C 0 km/h
514 27-08-2003 06:47:02 15.1 C 9.55 g/m*3 15.1 C 0 km/h
515 27-08-2003 06:59:02 15.4 C 9.59 g/m*3 15.4 C 0 km/h
516 27-08-2003 07:11:02 15.2 C 9.48 g/m*3 15.2 C 0 km/h
517 27-08-2003 07:23:02 15.2 C 9.48 g/m*3 15.2 C 0 km/h
518 27-08-2003 07:35:02 15.4 C 9.59 g/m*3 15.4 C 0 km/h
519 27-08-2003 07:47:02 15.4 C 9.59 g/m*3 15.4 C 0 km/h
520 27-08-2003 07:59:02 15.6 C 9.58 g/m*3 15.6 C 0 km/h
521 27-08-2003 08:11:02 15.8 C 9.56 g/m*3 15.8 C 0 km/h
522 27-08-2003 08:23:02 16 C 9.54 g/m*3 16 C 0 km/h
523 27-08-2003 08:35:02 16.2 C 9.52 g/m*3 16.2 C 0 km/h
524 27-08-2003 08:47:02 16.3 C 9.57 g/m*3 16.3 C 0 km/h
525 27-08-2003 08:59:02 16.5 C 9.55 g/m*3 16.5 C 0 km/h
Sensor: Nr:Datum:Temp:Abs-Feuchte:Windchill:Wind:
Aussen-T/F 526 27-08-2003 09:11:02 16.8 C 9.58 g/m*3 16.8 C 0 km/h
527 27-08-2003 09:23:02 16.9 C 9.64 g/m*3 16.9 C 0 km/h
528 27-08-2003 09:35:01 17.1 C 9.46 g/m*3 17.1 C 0 km/h
529 27-08-2003 09:47:01 17.2 C 9.67 g/m*3 17.2 C 0 km/h
530 27-08-2003 09:59:01 17.5 C 9.69 g/m*3 17.5 C 0 km/h
531 27-08-2003 10:11:01 17.8 C 9.71 g/m*3 17.8 C 0 km/h
532 27-08-2003 10:23:01 17.6 C 9.6 g/m*3 17.6 C 0 km/h
533 27-08-2003 10:35:01 17.9 C 9.77 g/m*3 17.9 C 0 km/h
534 27-08-2003 10:47:01 17.5 C 9.69 g/m*3 17.5 C 0 km/h
535 27-08-2003 10:59:01 16 C 10.08 g/m*3 16 C 0 km/h
536 27-08-2003 11:11:00 16.3 C 10.41 g/m*3 16.3 C 0 km/h
537 27-08-2003 11:23:00 17.3 C 10.02 g/m*3 17.3 C 0 km/h
538 27-08-2003 11:35:00 17.9 C 9.62 g/m*3 17.9 C 0 km/h
539 27-08-2003 11:47:00 18.6 C 9.55 g/m*3 18.6 C 0 km/h
540 27-08-2003 11:59:00 18.6 C 8.91 g/m*3 18.6 C 0 km/h
541 27-08-2003 11:59:01 18.6 C 8.91 g/m*3 18.6 C 0 km/h
542 27-08-2003 12:11:01 18.7 C 8.97 g/m*3 18.7 C 0 km/h
543 27-08-2003 12:23:01 19.2 C 8.9 g/m*3 19.2 C 0 km/h
544 27-08-2003 12:35:02 20 C 8.81 g/m*3 20 C 0 km/h
545 27-08-2003 12:47:02 20.4 C 8.49 g/m*3 20.4 C 0 km/h
546 27-08-2003 12:59:02 20.5 C 8.54 g/m*3 20.5 C 0 km/h
547 27-08-2003 13:11:01 20 C 8.12 g/m*3 20 C 0 km/h
548 27-08-2003 13:23:01 20.5 C 8.19 g/m*3 20.5 C 0 km/h
549 27-08-2003 13:35:02 21.1 C 8.11 g/m*3 21.1 C 0 km/h
550 27-08-2003 13:47:02 21.8 C 8.63 g/m*3 21.8 C 0 km/h
Sensor: Nr:Datum:Temp:Abs-Feuchte:Windchill:Wind:
Aussen-T/F 551 27-08-2003 13:59:02 22 C 7.76 g/m*3 22 C 0 km/h
552 27-08-2003 14:11:01 21.7 C 7.63 g/m*3 21.7 C 0 km/h
553 27-08-2003 14:23:01 21.4 C 7.5 g/m*3 21.4 C 0 km/h
554 27-08-2003 14:35:01 21.5 C 7.54 g/m*3 21.5 C 0 km/h
555 27-08-2003 14:47:01 21.9 C 7.91 g/m*3 21.9 C 0 km/h
556 27-08-2003 14:59:01 21.1 C 7.37 g/m*3 21.1 C 0 km/h
557 27-08-2003 15:11:01 21.7 C 7.82 g/m*3 21.7 C 0 km/h
558 27-08-2003 15:23:01 22.8 C 7.72 g/m*3 22.8 C 0 km/h
559 27-08-2003 15:35:02 22.8 C 7.72 g/m*3 22.8 C 0 km/h
560 27-08-2003 15:47:02 22.2 C 7.85 g/m*3 22.2 C 0 km/h
561 27-08-2003 15:59:02 21.9 C 7.91 g/m*3 21.9 C 0 km/h
562 27-08-2003 16:11:00 21.8 C 7.87 g/m*3 21.8 C 0 km/h
563 27-08-2003 16:23:00 21.6 C 7.97 g/m*3 21.6 C 0 km/h
564 27-08-2003 16:35:01 21.7 C 7.82 g/m*3 21.7 C 0 km/h
565 27-08-2003 16:47:01 21.8 C 7.87 g/m*3 21.8 C 0 km/h
566 27-08-2003 16:59:01 22 C 7.76 g/m*3 22 C 0 km/h
567 27-08-2003 17:11:01 21.6 C 7.59 g/m*3 21.6 C 0 km/h
568 27-08-2003 17:23:01 21.9 C 7.91 g/m*3 21.9 C 0 km/h
569 27-08-2003 17:35:04 21.1 C 7.74 g/m*3 21.1 C 0 km/h
570 27-08-2003 17:47:04 21.4 C 7.69 g/m*3 21.4 C 0 km/h
571 27-08-2003 17:59:04 21.6 C 7.97 g/m*3 21.6 C 0 km/h
572 27-08-2003 18:11:04 21.6 C 7.97 g/m*3 21.6 C 0 km/h
573 27-08-2003 18:23:04 21.4 C 8.06 g/m*3 21.4 C 0 km/h
574 27-08-2003 18:35:02 21.4 C 8.06 g/m*3 21.4 C 0 km/h
575 27-08-2003 18:47:02 20.9 C 8.2 g/m*3 20.9 C 0 km/h
Sensor: Nr:Datum:Temp:Abs-Feuchte:Windchill:Wind:
Aussen-T/F 576 27-08-2003 18:59:02 20.6 C 8.23 g/m*3 20.6 C 0 km/h
577 27-08-2003 19:11:03 20.1 C 8.17 g/m*3 20.1 C 0 km/h
578 27-08-2003 19:23:03 20.1 C 8.34 g/m*3 20.1 C 0 km/h
579 27-08-2003 19:35:01 19.8 C 8.37 g/m*3 19.8 C 0 km/h
580 27-08-2003 19:47:01 19.4 C 8.34 g/m*3 19.4 C 0 km/h
581 27-08-2003 19:59:01 18.9 C 8.42 g/m*3 18.9 C 0 km/h
582 27-08-2003 20:11:00 18.6 C 8.44 g/m*3 18.6 C 0 km/h
583 27-08-2003 20:23:00 18.5 C 8.54 g/m*3 18.5 C 0 km/h
584 27-08-2003 20:35:01 18.5 C 8.7 g/m*3 18.5 C 0 km/h
585 27-08-2003 20:47:01 18.5 C 8.7 g/m*3 18.5 C 0 km/h
586 27-08-2003 20:59:01 18.5 C 8.7 g/m*3 18.5 C 0 km/h
587 27-08-2003 21:12:00 18.4 C 8.81 g/m*3 18.4 C 0 km/h
588 27-08-2003 21:24:00 18.3 C 8.76 g/m*3 18.3 C 0 km/h
589 27-08-2003 21:36:00 18 C 8.75 g/m*3 18 C 0 km/h
590 27-08-2003 21:48:00 17.7 C 9.05 g/m*3 17.7 C 0 km/h
591 27-08-2003 22:00:00 17.2 C 8.79 g/m*3 17.2 C 0 km/h
592 27-08-2003 22:12:00 16.9 C 8.92 g/m*3 16.9 C 0 km/h
593 27-08-2003 22:24:00 16.4 C 8.79 g/m*3 16.4 C 0 km/h
594 27-08-2003 22:36:00 16.2 C 8.83 g/m*3 16.2 C 0 km/h
595 27-08-2003 22:48:00 16 C 8.86 g/m*3 16 C 0 km/h
596 27-08-2003 23:00:00 15.7 C 8.96 g/m*3 15.7 C 0 km/h
597 27-08-2003 23:12:00 15.6 C 8.91 g/m*3 15.6 C 0 km/h
598 27-08-2003 23:24:00 15.5 C 8.99 g/m*3 15.5 C 0 km/h
599 27-08-2003 23:36:00 15.3 C 8.88 g/m*3 15.3 C 0 km/h
600 27-08-2003 23:48:00 15.2 C 8.83 g/m*3 15.2 C 0 km/h
Sensor: Nr:Datum:Temp:Abs-Feuchte:Windchill:Wind:
Aussen-T/F 601 28-08-2003 00:00:00 15 C 8.85 g/m*3 15 C 0 km/h
602 28-08-2003 00:12:00 14.9 C 8.92 g/m*3 14.9 C 0 km/h
603 28-08-2003 00:24:00 14.6 C 8.76 g/m*3 14.6 C 0 km/h
604 28-08-2003 00:36:00 14.4 C 8.9 g/m*3 14.4 C 0 km/h
605 28-08-2003 00:48:00 14.3 C 8.97 g/m*3 14.3 C 0 km/h
606 28-08-2003 01:00:00 14.1 C 8.74 g/m*3 14.1 C 0 km/h
607 28-08-2003 01:12:00 13.8 C 8.7 g/m*3 13.8 C 0 km/h
608 28-08-2003 01:24:00 13.7 C 8.76 g/m*3 13.7 C 0 km/h
609 28-08-2003 01:36:00 13.5 C 8.77 g/m*3 13.5 C 0 km/h
610 28-08-2003 01:48:00 13.4 C 8.83 g/m*3 13.4 C 0 km/h
611 28-08-2003 02:00:00 13.3 C 9.01 g/m*3 13.3 C 0 km/h
612 28-08-2003 02:12:00 13.2 C 8.96 g/m*3 13.2 C 0 km/h
613 28-08-2003 02:24:00 13.1 C 9.01 g/m*3 13.1 C 0 km/h
614 28-08-2003 02:36:00 12.9 C 9.02 g/m*3 12.9 C 0 km/h
615 28-08-2003 02:48:00 12.8 C 8.96 g/m*3 12.8 C 0 km/h
616 28-08-2003 03:00:00 12.7 C 9.02 g/m*3 12.7 C 0 km/h
617 28-08-2003 03:12:00 12.5 C 8.91 g/m*3 12.5 C 0 km/h
618 28-08-2003 03:24:00 12.4 C 8.96 g/m*3 12.4 C 0 km/h
619 28-08-2003 03:36:00 12.3 C 8.9 g/m*3 12.3 C 0 km/h
620 28-08-2003 03:48:00 12.2 C 8.85 g/m*3 12.2 C 0 km/h
621 28-08-2003 04:00:00 12 C 8.74 g/m*3 12 C 0 km/h
622 28-08-2003 04:12:00 11.9 C 8.79 g/m*3 11.9 C 0 km/h
623 28-08-2003 04:24:00 11.7 C 8.79 g/m*3 11.7 C 0 km/h
624 28-08-2003 04:36:00 11.8 C 8.84 g/m*3 11.8 C 0 km/h
625 28-08-2003 04:48:00 11.7 C 8.89 g/m*3 11.7 C 0 km/h
Sensor: Nr:Datum:Temp:Abs-Feuchte:Windchill:Wind:
Aussen-T/F 626 28-08-2003 05:00:00 11.6 C 8.94 g/m*3 11.6 C 0 km/h
627 28-08-2003 05:12:00 11.5 C 8.88 g/m*3 11.5 C 0 km/h
628 28-08-2003 05:24:00 11.4 C 8.83 g/m*3 11.4 C 0 km/h
629 28-08-2003 05:36:00 11.3 C 8.67 g/m*3 11.3 C 0 km/h
630 28-08-2003 05:48:00 11.2 C 8.72 g/m*3 11.2 C 0 km/h
631 28-08-2003 06:00:00 11.1 C 8.76 g/m*3 11.1 C 0 km/h
632 28-08-2003 06:12:00 11 C 8.71 g/m*3 11 C 0 km/h
633 28-08-2003 06:24:00 10.9 C 8.65 g/m*3 10.9 C 0 km/h
634 28-08-2003 06:36:00 11.3 C 8.87 g/m*3 11.3 C 0 km/h
635 28-08-2003 06:48:00 11.5 C 8.88 g/m*3 11.5 C 0 km/h
636 28-08-2003 07:00:00 11.5 C 8.78 g/m*3 11.5 C 0 km/h
637 28-08-2003 07:12:00 11.5 C 8.78 g/m*3 11.5 C 0 km/h
638 28-08-2003 07:24:00 11.5 C 8.78 g/m*3 11.5 C 0 km/h
639 28-08-2003 07:36:00 12 C 8.95 g/m*3 12 C 0 km/h
640 28-08-2003 07:48:00 12.1 C 8.9 g/m*3 12.1 C 0 km/h
641 28-08-2003 08:00:00 12.5 C 8.91 g/m*3 12.5 C 0 km/h
642 28-08-2003 08:12:01 12.6 C 8.85 g/m*3 12.6 C 0 km/h
643 28-08-2003 08:24:01 12.6 C 8.85 g/m*3 12.6 C 0 km/h
644 28-08-2003 08:36:00 12.6 C 8.96 g/m*3 12.6 C 0 km/h
645 28-08-2003 08:48:00 12.7 C 9.02 g/m*3 12.7 C 0 km/h
646 28-08-2003 09:00:00 13 C 8.96 g/m*3 13 C 0 km/h
647 28-08-2003 09:12:01 13.2 C 9.07 g/m*3 13.2 C 0 km/h
648 28-08-2003 09:24:01 13.6 C 9.3 g/m*3 13.6 C 0 km/h
649 28-08-2003 09:36:00 14.1 C 9.34 g/m*3 14.1 C 0 km/h
650 28-08-2003 09:48:00 14.6 C 9.51 g/m*3 14.6 C 0 km/h
Sensor: Nr:Datum:Temp:Abs-Feuchte:Windchill:Wind:
Aussen-T/F 651 28-08-2003 10:00:00 15.2 C 9.61 g/m*3 15.2 C 0 km/h
652 28-08-2003 10:12:00 15.8 C 9.69 g/m*3 15.8 C 0 km/h
653 28-08-2003 10:24:00 16.4 C 9.63 g/m*3 16.4 C 0 km/h
654 28-08-2003 10:36:01 17.2 C 9.52 g/m*3 17.2 C 0 km/h
655 28-08-2003 10:48:01 18 C 9.37 g/m*3 18 C 0 km/h
656 28-08-2003 11:00:01 18.5 C 8.86 g/m*3 18.5 C 0 km/h
657 28-08-2003 11:12:01 19 C 8.8 g/m*3 19 C 0 km/h
658 28-08-2003 11:24:01 19.5 C 8.73 g/m*3 19.5 C 0 km/h
659 28-08-2003 11:36:01 19.9 C 8.93 g/m*3 19.9 C 0 km/h
660 28-08-2003 11:48:01 21.1 C 8.66 g/m*3 21.1 C 0 km/h
661 28-08-2003 12:00:01 21.9 C 9.07 g/m*3 21.9 C 0 km/h
662 28-08-2003 12:12:02 22.3 C 8.89 g/m*3 22.3 C 0 km/h
663 28-08-2003 12:24:02 22.9 C 8.79 g/m*3 22.9 C 0 km/h
664 28-08-2003 12:36:01 23.6 C 8.51 g/m*3 23.6 C 0 km/h
665 28-08-2003 12:48:01 23.4 C 8.2 g/m*3 23.4 C 0 km/h
666 28-08-2003 13:00:01 23.7 C 8.56 g/m*3 23.7 C 0 km/h
667 28-08-2003 13:12:02 24.1 C 7.88 g/m*3 24.1 C 0 km/h
668 28-08-2003 13:24:02 25.2 C 7.68 g/m*3 25.2 C 0 km/h
669 28-08-2003 13:36:01 26 C 8.03 g/m*3 26 C 0 km/h
670 28-08-2003 13:48:01 26.7 C 8.1 g/m*3 26.7 C 0 km/h
671 28-08-2003 14:00:01 27.3 C 8.11 g/m*3 27.3 C 0 km/h
672 28-08-2003 14:12:00 27.2 C 7.81 g/m*3 27.2 C 0 km/h
673 28-08-2003 14:24:00 26.6 C 7.8 g/m*3 26.6 C 0 km/h
674 28-08-2003 14:36:01 27.1 C 7.76 g/m*3 27.1 C 0 km/h
675 28-08-2003 14:48:01 27.1 C 7.76 g/m*3 27.1 C 0 km/h
Sensor: Nr:Datum:Temp:Abs-Feuchte:Windchill:Wind:
Aussen-T/F 676 28-08-2003 15:00:01 27.2 C 7.81 g/m*3 27.2 C 0 km/h
677 28-08-2003 15:12:01 27.3 C 7.85 g/m*3 27.3 C 0 km/h
678 28-08-2003 15:24:01 27.6 C 7.98 g/m*3 27.6 C 0 km/h
679 28-08-2003 15:36:00 27.8 C 7.8 g/m*3 27.8 C 0 km/h
680 28-08-2003 15:48:00 27.6 C 7.98 g/m*3 27.6 C 0 km/h
681 28-08-2003 16:00:00 28.1 C 7.93 g/m*3 28.1 C 0 km/h
682 28-08-2003 16:12:00 28.4 C 8.06 g/m*3 28.4 C 0 km/h
683 28-08-2003 16:24:00 28.3 C 8.02 g/m*3 28.3 C 0 km/h
684 28-08-2003 16:36:29 28.7 C 8.48 g/m*3 28.7 C 0 km/h
685 28-08-2003 16:48:29 28.7 C 8.19 g/m*3 28.7 C 0 km/h
686 28-08-2003 17:00:01 28.7 C 8.19 g/m*3 28.7 C 0 km/h
687 28-08-2003 17:12:02 29.5 C 8.26 g/m*3 29.5 C 0 km/h
688 28-08-2003 17:24:02 29.3 C 8.17 g/m*3 29.3 C 0 km/h
689 28-08-2003 17:36:01 29.2 C 8.42 g/m*3 29.2 C 0 km/h
690 28-08-2003 17:48:01 29 C 8.62 g/m*3 29 C 0 km/h
691 28-08-2003 18:00:01 29.2 C 8.71 g/m*3 29.2 C 0 km/h
692 28-08-2003 18:12:01 28.6 C 8.71 g/m*3 28.6 C 0 km/h
693 28-08-2003 18:24:01 27.7 C 9.36 g/m*3 27.7 C 0 km/h
694 28-08-2003 18:36:01 27.2 C 9.11 g/m*3 27.2 C 0 km/h
695 28-08-2003 18:48:01 26.7 C 9.37 g/m*3 26.7 C 0 km/h
696 28-08-2003 19:00:01 26.2 C 9.35 g/m*3 26.2 C 0 km/h
697 28-08-2003 19:12:01 25.6 C 9.76 g/m*3 25.6 C 0 km/h
698 28-08-2003 19:24:01 25.2 C 9.78 g/m*3 25.2 C 0 km/h
699 28-08-2003 19:36:01 24.5 C 9.18 g/m*3 24.5 C 0 km/h
700 28-08-2003 19:48:01 22.9 C 10.63 g/m*3 22.9 C 0 km/h
Sensor: Nr:Datum:Temp:Abs-Feuchte:Windchill:Wind:
Aussen-T/F 701 28-08-2003 20:00:01 20.7 C 10.8 g/m*3 20.7 C 0 km/h
702 28-08-2003 20:12:01 20.7 C 10.8 g/m*3 20.7 C 0 km/h
703 28-08-2003 20:24:01 20.5 C 11.03 g/m*3 20.5 C 0 km/h
704 28-08-2003 20:36:01 20.4 C 10.97 g/m*3 20.4 C 0 km/h
705 28-08-2003 20:48:01 20.4 C 11.14 g/m*3 20.4 C 0 km/h
706 28-08-2003 21:00:01 19.9 C 12.54 g/m*3 19.9 C 0 km/h
707 28-08-2003 21:12:02 18.2 C 12.9 g/m*3 18.2 C 0 km/h
708 28-08-2003 21:24:02 17.7 C 13.43 g/m*3 17.7 C 0 km/h
709 28-08-2003 21:37:01 17.4 C 13.34 g/m*3 17.4 C 0 km/h
710 28-08-2003 21:49:01 17.5 C 13.57 g/m*3 17.5 C 0 km/h
711 28-08-2003 22:01:01 17.5 C 13.57 g/m*3 17.5 C 0 km/h
712 28-08-2003 22:13:01 17.6 C 13.65 g/m*3 17.6 C 0 km/h
713 28-08-2003 22:25:01 17.5 C 13.42 g/m*3 17.5 C 0 km/h
714 28-08-2003 22:37:01 17.5 C 13.42 g/m*3 17.5 C 0 km/h
715 28-08-2003 22:49:01 17.6 C 13.35 g/m*3 17.6 C 0 km/h
716 28-08-2003 23:01:01 17.5 C 13.27 g/m*3 17.5 C 0 km/h
717 28-08-2003 23:13:01 17.5 C 13.27 g/m*3 17.5 C 0 km/h
718 28-08-2003 23:25:01 17.5 C 13.12 g/m*3 17.5 C 0 km/h
719 28-08-2003 23:37:01 17.6 C 13.2 g/m*3 17.6 C 0 km/h
720 28-08-2003 23:49:01 17.4 C 12.89 g/m*3 17.4 C 0 km/h
721 29-08-2003 00:01:01 17.5 C 13.12 g/m*3 17.5 C 0 km/h
722 29-08-2003 00:13:01 17.3 C 12.82 g/m*3 17.3 C 0 km/h
723 29-08-2003 00:25:01 17.5 C 13.12 g/m*3 17.5 C 0 km/h
724 29-08-2003 00:37:01 17.3 C 13.11 g/m*3 17.3 C 0 km/h
725 29-08-2003 00:49:01 17.2 C 13.18 g/m*3 17.2 C 0 km/h
Sensor: Nr:Datum:Temp:Abs-Feuchte:Windchill:Wind:
Aussen-T/F 726 29-08-2003 01:01:01 17 C 13.02 g/m*3 17 C 0 km/h
727 29-08-2003 01:13:01 17.1 C 13.39 g/m*3 17.1 C 0 km/h
728 29-08-2003 01:25:01 17.1 C 13.39 g/m*3 17.1 C 0 km/h
729 29-08-2003 01:37:01 17 C 13.31 g/m*3 17 C 0 km/h
730 29-08-2003 01:49:01 17 C 13.46 g/m*3 17 C 0 km/h
731 29-08-2003 02:01:01 17 C 13.46 g/m*3 17 C 0 km/h
732 29-08-2003 02:13:01 17 C 13.46 g/m*3 17 C 0 km/h
733 29-08-2003 02:25:01 17 C 13.46 g/m*3 17 C 0 km/h
734 29-08-2003 02:37:01 17 C 13.46 g/m*3 17 C 0 km/h
735 29-08-2003 02:49:01 16.8 C 13.44 g/m*3 16.8 C 0 km/h
736 29-08-2003 03:01:01 16.8 C 13.44 g/m*3 16.8 C 0 km/h
737 29-08-2003 03:13:01 16.8 C 13.44 g/m*3 16.8 C 0 km/h
738 29-08-2003 03:25:01 16.8 C 13.44 g/m*3 16.8 C 0 km/h
739 29-08-2003 03:37:01 16.7 C 13.36 g/m*3 16.7 C 0 km/h
740 29-08-2003 03:49:01 16.7 C 13.36 g/m*3 16.7 C 0 km/h
741 29-08-2003 04:01:01 16.8 C 13.44 g/m*3 16.8 C 0 km/h
742 29-08-2003 04:13:01 16.6 C 13.28 g/m*3 16.6 C 0 km/h
743 29-08-2003 04:25:01 16.7 C 13.36 g/m*3 16.7 C 0 km/h
744 29-08-2003 04:37:01 16.7 C 13.36 g/m*3 16.7 C 0 km/h
745 29-08-2003 04:49:01 16.6 C 13.28 g/m*3 16.6 C 0 km/h
746 29-08-2003 05:01:01 16.6 C 13.28 g/m*3 16.6 C 0 km/h
747 29-08-2003 05:13:01 16.4 C 13.12 g/m*3 16.4 C 0 km/h
748 29-08-2003 05:25:01 16.2 C 12.96 g/m*3 16.2 C 0 km/h
749 29-08-2003 05:37:01 16.2 C 12.96 g/m*3 16.2 C 0 km/h
750 29-08-2003 05:49:01 16.3 C 13.04 g/m*3 16.3 C 0 km/h
Sensor: Nr:Datum:Temp:Abs-Feuchte:Windchill:Wind:
Aussen-T/F 751 29-08-2003 06:01:01 16.5 C 13.2 g/m*3 16.5 C 0 km/h
752 29-08-2003 06:13:01 16.7 C 13.36 g/m*3 16.7 C 0 km/h
753 29-08-2003 06:25:01 16.7 C 13.5 g/m*3 16.7 C 0 km/h
754 29-08-2003 06:37:01 16.7 C 13.5 g/m*3 16.7 C 0 km/h
755 29-08-2003 06:49:01 16.8 C 13.58 g/m*3 16.8 C 0 km/h
756 29-08-2003 07:01:01 16.9 C 13.66 g/m*3 16.9 C 0 km/h
757 29-08-2003 07:13:01 16.9 C 13.52 g/m*3 16.9 C 0 km/h
758 29-08-2003 07:25:01 17.1 C 13.68 g/m*3 17.1 C 0 km/h
759 29-08-2003 07:37:01 17.2 C 13.77 g/m*3 17.2 C 0 km/h
760 29-08-2003 07:49:01 17.5 C 13.87 g/m*3 17.5 C 0 km/h
761 29-08-2003 08:01:01 17.9 C 14.05 g/m*3 17.9 C 0 km/h
762 29-08-2003 08:13:01 18.3 C 13.6 g/m*3 18.3 C 0 km/h
763 29-08-2003 08:25:01 18.7 C 13.45 g/m*3 18.7 C 0 km/h
764 29-08-2003 08:37:01 19 C 13.69 g/m*3 19 C 0 km/h
765 29-08-2003 08:49:01 19.3 C 14.1 g/m*3 19.3 C 0 km/h
766 29-08-2003 09:01:01 19.4 C 13.85 g/m*3 19.4 C 0 km/h
767 29-08-2003 09:13:01 19.7 C 14.09 g/m*3 19.7 C 0 km/h
768 29-08-2003 09:25:01 19.7 C 14.09 g/m*3 19.7 C 0 km/h
769 29-08-2003 09:37:01 19.8 C 13.49 g/m*3 19.8 C 0 km/h
770 29-08-2003 09:49:01 20.1 C 13.39 g/m*3 20.1 C 0 km/h
771 29-08-2003 10:01:01 20.4 C 13.09 g/m*3 20.4 C 0 km/h
772 29-08-2003 10:13:01 20.1 C 13.04 g/m*3 20.1 C 0 km/h
773 29-08-2003 10:25:01 19.9 C 13.06 g/m*3 19.9 C 0 km/h
774 29-08-2003 10:37:01 19.7 C 13.08 g/m*3 19.7 C 0 km/h
775 29-08-2003 10:49:01 18.9 C 13.45 g/m*3 18.9 C 0 km/h
Sensor: Nr:Datum:Temp:Abs-Feuchte:Windchill:Wind:
Aussen-T/F 776 29-08-2003 11:01:01 18.7 C 13.93 g/m*3 18.7 C 0 km/h
777 29-08-2003 11:13:00 19 C 14.18 g/m*3 19 C 0 km/h
778 29-08-2003 11:25:00 19.2 C 14.18 g/m*3 19.2 C 0 km/h
779 29-08-2003 11:37:01 19.5 C 14.1 g/m*3 19.5 C 0 km/h
780 29-08-2003 11:49:01 19.4 C 13.68 g/m*3 19.4 C 0 km/h
781 29-08-2003 12:01:01 19 C 13.53 g/m*3 19 C 0 km/h
782 29-08-2003 12:13:02 18.9 C 13.77 g/m*3 18.9 C 0 km/h
783 29-08-2003 12:25:02 19 C 13.53 g/m*3 19 C 0 km/h
784 29-08-2003 12:37:01 18.6 C 13.05 g/m*3 18.6 C 0 km/h
785 29-08-2003 12:49:01 17.8 C 12.9 g/m*3 17.8 C 0 km/h
786 29-08-2003 13:01:01 17.2 C 12.89 g/m*3 17.2 C 0 km/h
787 29-08-2003 13:13:02 17.5 C 13.12 g/m*3 17.5 C 0 km/h
788 29-08-2003 13:25:02 19.5 C 14.43 g/m*3 19.5 C 0 km/h
789 29-08-2003 13:37:01 20.4 C 13.62 g/m*3 20.4 C 0 km/h
790 29-08-2003 13:49:01 20.5 C 13.17 g/m*3 20.5 C 0 km/h
791 29-08-2003 14:01:01 20.9 C 13.11 g/m*3 20.9 C 0 km/h
792 29-08-2003 14:13:02 19.4 C 12.51 g/m*3 19.4 C 0 km/h
793 29-08-2003 14:25:02 18.5 C 12.02 g/m*3 18.5 C 0 km/h
794 29-08-2003 14:37:01 18.6 C 12.26 g/m*3 18.6 C 0 km/h
795 29-08-2003 14:49:01 19.4 C 11.85 g/m*3 19.4 C 0 km/h
796 29-08-2003 15:01:01 20.2 C 11.71 g/m*3 20.2 C 0 km/h
797 29-08-2003 15:13:01 20.6 C 11.63 g/m*3 20.6 C 0 km/h
798 29-08-2003 15:25:01 21.1 C 11.61 g/m*3 21.1 C 0 km/h
799 29-08-2003 15:37:01 21.6 C 11 g/m*3 21.6 C 0 km/h
800 29-08-2003 15:49:01 21.5 C 10.75 g/m*3 21.5 C 0 km/h
Sensor: Nr:Datum:Temp:Abs-Feuchte:Windchill:Wind:
Aussen-T/F 801 29-08-2003 16:01:01 21.3 C 10.25 g/m*3 21.3 C 0 km/h
802 29-08-2003 16:13:01 21.1 C 10.32 g/m*3 21.1 C 0 km/h
803 29-08-2003 16:25:01 21.8 C 10.36 g/m*3 21.8 C 0 km/h
804 29-08-2003 16:37:00 22.2 C 10.01 g/m*3 22.2 C 0 km/h
805 29-08-2003 16:49:00 22.1 C 10.15 g/m*3 22.1 C 0 km/h
806 29-08-2003 17:01:00 21.2 C 10.56 g/m*3 21.2 C 0 km/h
807 29-08-2003 17:13:01 19 C 10.76 g/m*3 19 C 0 km/h
808 29-08-2003 17:25:01 17.7 C 10.56 g/m*3 17.7 C 0 km/h
809 29-08-2003 17:37:22 15.8 C 11.31 g/m*3 15.8 C 0 km/h
810 29-08-2003 17:49:02 15.5 C 11.76 g/m*3 15.5 C 0 km/h
811 29-08-2003 18:01:02 15 C 11.41 g/m*3 15 C 0 km/h
812 29-08-2003 18:13:01 14.9 C 11.47 g/m*3 14.9 C 0 km/h
813 29-08-2003 18:25:01 14.7 C 11.21 g/m*3 14.7 C 0 km/h
814 29-08-2003 18:37:01 14.5 C 11.19 g/m*3 14.5 C 0 km/h
815 29-08-2003 18:49:01 14.4 C 11 g/m*3 14.4 C 0 km/h
816 29-08-2003 19:01:01 14.7 C 11.08 g/m*3 14.7 C 0 km/h
817 29-08-2003 19:13:54 14.7 C 10.83 g/m*3 14.7 C 0 km/h
818 29-08-2003 19:25:02 14.7 C 10.83 g/m*3 14.7 C 0 km/h
819 29-08-2003 19:37:01 14.6 C 10.76 g/m*3 14.6 C 0 km/h
820 29-08-2003 19:49:01 14.6 C 10.64 g/m*3 14.6 C 0 km/h
821 29-08-2003 20:01:01 14.6 C 10.76 g/m*3 14.6 C 0 km/h
822 29-08-2003 20:13:01 14.5 C 10.57 g/m*3 14.5 C 0 km/h
823 29-08-2003 20:25:01 14.5 C 10.57 g/m*3 14.5 C 0 km/h
824 29-08-2003 20:37:01 14.4 C 10.63 g/m*3 14.4 C 0 km/h
825 29-08-2003 20:49:01 14.5 C 10.57 g/m*3 14.5 C 0 km/h
Sensor: Nr:Datum:Temp:Abs-Feuchte:Windchill:Wind:
Aussen-T/F 826 29-08-2003 21:01:01 14.5 C 10.45 g/m*3 14.5 C 0 km/h
827 29-08-2003 21:13:01 14.5 C 10.45 g/m*3 14.5 C 0 km/h
828 29-08-2003 21:25:01 14.5 C 10.45 g/m*3 14.5 C 0 km/h
829 29-08-2003 21:37:02 14.4 C 10.63 g/m*3 14.4 C 0 km/h
830 29-08-2003 21:49:02 14 C 10.61 g/m*3 14 C 0 km/h
831 29-08-2003 22:01:02 13.9 C 10.67 g/m*3 13.9 C 0 km/h
832 29-08-2003 22:14:05 13.9 C 10.67 g/m*3 13.9 C 0 km/h
833 29-08-2003 22:26:05 14 C 10.61 g/m*3 14 C 0 km/h
834 29-08-2003 22:38:05 14 C 10.61 g/m*3 14 C 0 km/h
835 29-08-2003 22:50:05 14.3 C 10.81 g/m*3 14.3 C 0 km/h
836 29-08-2003 23:02:05 13.9 C 10.67 g/m*3 13.9 C 0 km/h
837 29-08-2003 23:14:05 14.1 C 10.68 g/m*3 14.1 C 0 km/h
838 29-08-2003 23:26:05 14.2 C 10.38 g/m*3 14.2 C 0 km/h
839 29-08-2003 23:38:05 14.2 C 10.26 g/m*3 14.2 C 0 km/h
840 29-08-2003 23:50:05 14.2 C 10.26 g/m*3 14.2 C 0 km/h
841 30-08-2003 00:02:05 14.2 C 10.26 g/m*3 14.2 C 0 km/h
842 30-08-2003 00:14:05 14.2 C 10.26 g/m*3 14.2 C 0 km/h
843 30-08-2003 00:26:05 14.2 C 10.14 g/m*3 14.2 C 0 km/h
844 30-08-2003 00:38:05 14.2 C 10.01 g/m*3 14.2 C 0 km/h
845 30-08-2003 00:50:05 14.2 C 10.01 g/m*3 14.2 C 0 km/h
846 30-08-2003 01:02:05 14.3 C 10.32 g/m*3 14.3 C 0 km/h
847 30-08-2003 01:14:05 14.3 C 10.2 g/m*3 14.3 C 0 km/h
848 30-08-2003 01:26:05 14.3 C 10.2 g/m*3 14.3 C 0 km/h
849 30-08-2003 01:38:05 13.8 C 10.01 g/m*3 13.8 C 0 km/h
850 30-08-2003 01:50:05 13.5 C 9.94 g/m*3 13.5 C 0 km/h
Sensor: Nr:Datum:Temp:Abs-Feuchte:Windchill:Wind:
Aussen-T/F 851 30-08-2003 02:02:05 13.5 C 10.06 g/m*3 13.5 C 0 km/h
852 30-08-2003 02:14:05 13.4 C 10 g/m*3 13.4 C 0 km/h
853 30-08-2003 02:26:05 13.5 C 10.06 g/m*3 13.5 C 0 km/h
854 30-08-2003 02:38:05 13.7 C 10.18 g/m*3 13.7 C 0 km/h
855 30-08-2003 02:50:05 13.7 C 10.18 g/m*3 13.7 C 0 km/h
856 30-08-2003 03:02:05 13.6 C 10.12 g/m*3 13.6 C 0 km/h
857 30-08-2003 03:14:05 13.6 C 10.12 g/m*3 13.6 C 0 km/h
858 30-08-2003 03:26:05 13.6 C 10 g/m*3 13.6 C 0 km/h
859 30-08-2003 03:38:05 13.6 C 9.89 g/m*3 13.6 C 0 km/h
860 30-08-2003 03:50:05 13.7 C 9.83 g/m*3 13.7 C 0 km/h
861 30-08-2003 04:02:05 13.6 C 9.89 g/m*3 13.6 C 0 km/h
862 30-08-2003 04:14:05 13.6 C 9.89 g/m*3 13.6 C 0 km/h
863 30-08-2003 04:26:05 13.6 C 9.89 g/m*3 13.6 C 0 km/h
864 30-08-2003 04:38:05 13.7 C 9.95 g/m*3 13.7 C 0 km/h
865 30-08-2003 04:50:05 13.7 C 9.95 g/m*3 13.7 C 0 km/h
866 30-08-2003 05:02:05 13.7 C 9.83 g/m*3 13.7 C 0 km/h
867 30-08-2003 05:14:05 13.7 C 9.95 g/m*3 13.7 C 0 km/h
868 30-08-2003 05:26:05 13.6 C 10 g/m*3 13.6 C 0 km/h
869 30-08-2003 05:38:05 13.6 C 10.12 g/m*3 13.6 C 0 km/h
870 30-08-2003 05:50:05 13.6 C 10.12 g/m*3 13.6 C 0 km/h
871 30-08-2003 06:02:05 13.5 C 10.18 g/m*3 13.5 C 0 km/h
872 30-08-2003 06:14:05 13.4 C 10.11 g/m*3 13.4 C 0 km/h
873 30-08-2003 06:26:05 13.4 C 10.23 g/m*3 13.4 C 0 km/h
874 30-08-2003 06:38:05 13.2 C 10.1 g/m*3 13.2 C 0 km/h
875 30-08-2003 06:50:05 13.2 C 10.22 g/m*3 13.2 C 0 km/h
Sensor: Nr:Datum:Temp:Abs-Feuchte:Windchill:Wind:
Aussen-T/F 876 30-08-2003 07:02:05 13.2 C 10.33 g/m*3 13.2 C 0 km/h
877 30-08-2003 07:14:05 13.2 C 10.33 g/m*3 13.2 C 0 km/h
878 30-08-2003 07:26:05 13.2 C 10.45 g/m*3 13.2 C 0 km/h
879 30-08-2003 07:38:05 13.3 C 10.51 g/m*3 13.3 C 0 km/h
880 30-08-2003 07:50:05 13.2 C 10.45 g/m*3 13.2 C 0 km/h
881 30-08-2003 08:02:05 13.3 C 10.63 g/m*3 13.3 C 0 km/h
882 30-08-2003 08:14:05 13.3 C 10.63 g/m*3 13.3 C 0 km/h
883 30-08-2003 08:26:05 13.4 C 10.69 g/m*3 13.4 C 0 km/h
884 30-08-2003 08:38:05 13.4 C 10.69 g/m*3 13.4 C 0 km/h
885 30-08-2003 08:50:05 13.6 C 10.95 g/m*3 13.6 C 0 km/h
886 30-08-2003 09:02:05 13.6 C 10.95 g/m*3 13.6 C 0 km/h
887 30-08-2003 09:14:05 13.7 C 11.01 g/m*3 13.7 C 0 km/h
888 30-08-2003 09:26:05 13.6 C 10.95 g/m*3 13.6 C 0 km/h
889 30-08-2003 09:38:01 13.6 C 10.95 g/m*3 13.6 C 0 km/h
890 30-08-2003 09:50:01 13.6 C 10.95 g/m*3 13.6 C 0 km/h
891 30-08-2003 10:02:02 13.6 C 10.95 g/m*3 13.6 C 0 km/h
892 30-08-2003 10:14:02 13.7 C 11.01 g/m*3 13.7 C 0 km/h
893 30-08-2003 10:26:02 13.9 C 11.15 g/m*3 13.9 C 0 km/h
894 30-08-2003 10:38:00 14.3 C 11.43 g/m*3 14.3 C 0 km/h
895 30-08-2003 10:50:00 14.2 C 11.23 g/m*3 14.2 C 0 km/h
896 30-08-2003 11:02:00 14.4 C 11 g/m*3 14.4 C 0 km/h
897 30-08-2003 11:14:00 14.6 C 10.89 g/m*3 14.6 C 0 km/h
898 30-08-2003 11:26:00 15 C 10.64 g/m*3 15 C 0 km/h
899 30-08-2003 11:38:01 15.3 C 10.45 g/m*3 15.3 C 0 km/h
900 30-08-2003 11:50:01 15.1 C 10.19 g/m*3 15.1 C 0 km/h
Sensor: Nr:Datum:Temp:Abs-Feuchte:Windchill:Wind:
Aussen-T/F 901 30-08-2003 12:02:01 15 C 10 g/m*3 15 C 0 km/h
902 30-08-2003 12:14:01 14.5 C 10.2 g/m*3 14.5 C 0 km/h
903 30-08-2003 12:26:01 13.8 C 9.53 g/m*3 13.8 C 0 km/h
904 30-08-2003 12:38:00 13.7 C 9.71 g/m*3 13.7 C 0 km/h
905 30-08-2003 12:50:00 14.1 C 10.19 g/m*3 14.1 C 0 km/h
906 30-08-2003 13:02:01 14.4 C 9.89 g/m*3 14.4 C 0 km/h
907 30-08-2003 13:14:01 15.2 C 10.51 g/m*3 15.2 C 0 km/h
908 30-08-2003 13:26:01 16.9 C 10.5 g/m*3 16.9 C 0 km/h
909 30-08-2003 13:38:01 17.9 C 10.69 g/m*3 17.9 C 0 km/h
910 30-08-2003 13:50:01 19 C 10.43 g/m*3 19 C 0 km/h
911 30-08-2003 14:02:01 18.9 C 10.37 g/m*3 18.9 C 0 km/h
912 30-08-2003 14:14:01 19.6 C 10.47 g/m*3 19.6 C 0 km/h
913 30-08-2003 14:26:01 19.5 C 9.73 g/m*3 19.5 C 0 km/h
914 30-08-2003 14:38:01 19.9 C 9.79 g/m*3 19.9 C 0 km/h
915 30-08-2003 14:50:01 19 C 8.96 g/m*3 19 C 0 km/h
916 30-08-2003 15:02:08 18.6 C 9.71 g/m*3 18.6 C 0 km/h
917 30-08-2003 15:14:08 18.1 C 10.04 g/m*3 18.1 C 0 km/h
918 30-08-2003 15:26:08 18.5 C 10.13 g/m*3 18.5 C 0 km/h
919 30-08-2003 15:38:01 18.7 C 10.25 g/m*3 18.7 C 0 km/h
920 30-08-2003 15:50:01 20.4 C 10.08 g/m*3 20.4 C 0 km/h
921 30-08-2003 16:02:00 21.5 C 9.99 g/m*3 21.5 C 0 km/h
922 30-08-2003 16:14:00 22.5 C 8.59 g/m*3 22.5 C 0 km/h
923 30-08-2003 16:26:00 21.9 C 8.68 g/m*3 21.9 C 0 km/h
924 30-08-2003 16:38:02 21.2 C 8.9 g/m*3 21.2 C 0 km/h
925 30-08-2003 16:50:02 20.4 C 9.38 g/m*3 20.4 C 0 km/h
Sensor: Nr:Datum:Temp:Abs-Feuchte:Windchill:Wind:
Aussen-T/F 926 30-08-2003 17:02:58 19.5 C 9.4 g/m*3 19.5 C 0 km/h
927 30-08-2003 17:14:58 18.9 C 9.4 g/m*3 18.9 C 0 km/h
928 30-08-2003 17:26:02 17 C 10.42 g/m*3 17 C 0 km/h
929 30-08-2003 17:38:44 15.7 C 11.24 g/m*3 15.7 C 0 km/h
930 30-08-2003 17:50:44 15.2 C 11.29 g/m*3 15.2 C 0 km/h
931 30-08-2003 18:02:37 15.1 C 11.48 g/m*3 15.1 C 0 km/h
932 30-08-2003 18:14:01 15.4 C 11.69 g/m*3 15.4 C 0 km/h
933 30-08-2003 18:26:01 15.6 C 11.84 g/m*3 15.6 C 0 km/h
934 30-08-2003 18:38:01 15.6 C 11.44 g/m*3 15.6 C 0 km/h
935 30-08-2003 18:50:01 15.3 C 11.23 g/m*3 15.3 C 0 km/h
936 30-08-2003 19:02:01 15.3 C 11.23 g/m*3 15.3 C 0 km/h
937 30-08-2003 19:14:01 15.3 C 10.84 g/m*3 15.3 C 0 km/h
938 30-08-2003 19:26:01 14.9 C 10.71 g/m*3 14.9 C 0 km/h
939 30-08-2003 19:38:01 14.5 C 10.7 g/m*3 14.5 C 0 km/h
940 30-08-2003 19:50:01 14.5 C 10.94 g/m*3 14.5 C 0 km/h
941 30-08-2003 20:02:00 14.5 C 10.94 g/m*3 14.5 C 0 km/h
942 30-08-2003 20:14:00 14.5 C 10.94 g/m*3 14.5 C 0 km/h
943 30-08-2003 20:26:00 14.5 C 10.82 g/m*3 14.5 C 0 km/h
944 30-08-2003 20:38:00 14.3 C 10.57 g/m*3 14.3 C 0 km/h
945 30-08-2003 20:50:00 14.1 C 10.56 g/m*3 14.1 C 0 km/h
946 30-08-2003 21:02:01 13.9 C 10.55 g/m*3 13.9 C 0 km/h
947 30-08-2003 21:14:01 13.9 C 10.67 g/m*3 13.9 C 0 km/h
948 30-08-2003 21:26:01 14 C 10.61 g/m*3 14 C 0 km/h
949 30-08-2003 21:39:03 13.8 C 10.6 g/m*3 13.8 C 0 km/h
950 30-08-2003 21:51:03 13.7 C 10.42 g/m*3 13.7 C 0 km/h
Sensor: Nr:Datum:Temp:Abs-Feuchte:Windchill:Wind:
Aussen-T/F 951 30-08-2003 22:03:03 13.6 C 10.36 g/m*3 13.6 C 0 km/h
952 30-08-2003 22:15:03 13.4 C 10.23 g/m*3 13.4 C 0 km/h
953 30-08-2003 22:27:03 13.5 C 10.41 g/m*3 13.5 C 0 km/h
954 30-08-2003 22:39:03 13.5 C 10.29 g/m*3 13.5 C 0 km/h
955 30-08-2003 22:51:03 13.5 C 10.18 g/m*3 13.5 C 0 km/h
956 30-08-2003 23:03:03 13.4 C 10.11 g/m*3 13.4 C 0 km/h
957 30-08-2003 23:15:03 13.1 C 9.93 g/m*3 13.1 C 0 km/h
958 30-08-2003 23:27:03 13.2 C 9.76 g/m*3 13.2 C 0 km/h
959 30-08-2003 23:39:03 13.2 C 9.76 g/m*3 13.2 C 0 km/h
960 30-08-2003 23:51:03 13 C 9.75 g/m*3 13 C 0 km/h
961 31-08-2003 00:03:03 13 C 9.53 g/m*3 13 C 0 km/h
962 31-08-2003 00:15:03 12.7 C 9.68 g/m*3 12.7 C 0 km/h
963 31-08-2003 00:27:03 12.6 C 9.62 g/m*3 12.6 C 0 km/h
964 31-08-2003 00:39:03 12.5 C 9.57 g/m*3 12.5 C 0 km/h
965 31-08-2003 00:51:03 12.4 C 9.62 g/m*3 12.4 C 0 km/h
966 31-08-2003 01:03:03 12.2 C 9.5 g/m*3 12.2 C 0 km/h
967 31-08-2003 01:15:03 12.1 C 9.54 g/m*3 12.1 C 0 km/h
968 31-08-2003 01:27:03 11.9 C 9.43 g/m*3 11.9 C 0 km/h
969 31-08-2003 01:39:03 11.7 C 9.41 g/m*3 11.7 C 0 km/h
970 31-08-2003 01:51:03 11.5 C 9.3 g/m*3 11.5 C 0 km/h
971 31-08-2003 02:03:03 11.4 C 9.24 g/m*3 11.4 C 0 km/h
972 31-08-2003 02:15:03 11.2 C 9.12 g/m*3 11.2 C 0 km/h
973 31-08-2003 02:27:03 11.1 C 9.17 g/m*3 11.1 C 0 km/h
974 31-08-2003 02:39:03 11 C 9.11 g/m*3 11 C 0 km/h
975 31-08-2003 02:51:03 10.9 C 9.15 g/m*3 10.9 C 0 km/h
Sensor: Nr:Datum:Temp:Abs-Feuchte:Windchill:Wind:
Aussen-T/F 976 31-08-2003 03:03:03 10.8 C 8.99 g/m*3 10.8 C 0 km/h
977 31-08-2003 03:15:03 10.8 C 9.09 g/m*3 10.8 C 0 km/h
978 31-08-2003 03:27:03 10.9 C 9.15 g/m*3 10.9 C 0 km/h
979 31-08-2003 03:39:03 10.9 C 9.15 g/m*3 10.9 C 0 km/h
980 31-08-2003 03:51:03 11 C 9.21 g/m*3 11 C 0 km/h
981 31-08-2003 04:03:03 10.9 C 9.15 g/m*3 10.9 C 0 km/h
982 31-08-2003 04:15:03 10.8 C 9.09 g/m*3 10.8 C 0 km/h
983 31-08-2003 04:27:03 11 C 9.01 g/m*3 11 C 0 km/h
984 31-08-2003 04:39:03 10.8 C 8.9 g/m*3 10.8 C 0 km/h
985 31-08-2003 04:51:03 10.6 C 8.78 g/m*3 10.6 C 0 km/h
986 31-08-2003 05:03:03 10.6 C 8.88 g/m*3 10.6 C 0 km/h
987 31-08-2003 05:15:03 10.8 C 8.99 g/m*3 10.8 C 0 km/h
988 31-08-2003 05:27:03 10.7 C 8.84 g/m*3 10.7 C 0 km/h
989 31-08-2003 05:39:03 10.8 C 8.9 g/m*3 10.8 C 0 km/h
990 31-08-2003 05:51:03 11 C 8.91 g/m*3 11 C 0 km/h
991 31-08-2003 06:03:03 11 C 8.91 g/m*3 11 C 0 km/h
992 31-08-2003 06:15:03 10.8 C 8.8 g/m*3 10.8 C 0 km/h
993 31-08-2003 06:27:03 10.4 C 8.58 g/m*3 10.4 C 0 km/h
994 31-08-2003 06:39:03 10.4 C 8.58 g/m*3 10.4 C 0 km/h
995 31-08-2003 06:51:03 10.5 C 8.73 g/m*3 10.5 C 0 km/h
996 31-08-2003 07:03:03 10.6 C 8.69 g/m*3 10.6 C 0 km/h
997 31-08-2003 07:15:03 10.7 C 8.64 g/m*3 10.7 C 0 km/h
998 31-08-2003 07:27:03 10.8 C 8.7 g/m*3 10.8 C 0 km/h
999 31-08-2003 07:39:03 11.1 C 8.66 g/m*3 11.1 C 0 km/h
1000 31-08-2003 07:51:03 11.3 C 8.57 g/m*3 11.3 C 0 km/h
Sensor: Nr:Datum:Temp:Abs-Feuchte:Windchill:Wind:
Aussen-T/F 1001 31-08-2003 08:03:03 11.3 C 8.57 g/m*3 11.3 C 0 km/h
1002 31-08-2003 08:15:03 11.4 C 8.62 g/m*3 11.4 C 0 km/h
1003 31-08-2003 08:27:03 11.7 C 8.68 g/m*3 11.7 C 0 km/h
1004 31-08-2003 08:39:03 12 C 8.53 g/m*3 12 C 0 km/h
1005 31-08-2003 08:51:03 12 C 8.63 g/m*3 12 C 0 km/h
1006 31-08-2003 09:03:03 12 C 8.63 g/m*3 12 C 0 km/h
1007 31-08-2003 09:15:03 12.1 C 8.69 g/m*3 12.1 C 0 km/h
1008 31-08-2003 09:27:03 12.2 C 8.52 g/m*3 12.2 C 0 km/h
1009 31-08-2003 09:39:03 12.6 C 8.63 g/m*3 12.6 C 0 km/h
1010 31-08-2003 09:51:03 13.1 C 8.67 g/m*3 13.1 C 0 km/h
1011 31-08-2003 10:03:03 13.8 C 8.7 g/m*3 13.8 C 0 km/h
1012 31-08-2003 10:15:03 14.2 C 8.79 g/m*3 14.2 C 0 km/h
1013 31-08-2003 10:27:03 14.6 C 8.63 g/m*3 14.6 C 0 km/h
1014 31-08-2003 10:39:03 14.9 C 8.54 g/m*3 14.9 C 0 km/h
1015 31-08-2003 10:51:03 15.4 C 8.41 g/m*3 15.4 C 0 km/h
1016 31-08-2003 11:03:03 15.2 C 8.31 g/m*3 15.2 C 0 km/h
1017 31-08-2003 11:15:03 15.1 C 8.26 g/m*3 15.1 C 0 km/h
1018 31-08-2003 11:27:03 15.7 C 8.03 g/m*3 15.7 C 0 km/h
1019 31-08-2003 11:39:00 15.4 C 8.15 g/m*3 15.4 C 0 km/h
1020 31-08-2003 11:51:00 15.1 C 8.13 g/m*3 15.1 C 0 km/h
1021 31-08-2003 12:03:01 15.5 C 8.33 g/m*3 15.5 C 0 km/h
1022 31-08-2003 12:15:01 15.9 C 8.26 g/m*3 15.9 C 0 km/h
1023 31-08-2003 12:27:01 15.7 C 8.16 g/m*3 15.7 C 0 km/h
1024 31-08-2003 12:39:01 16.2 C 8 g/m*3 16.2 C 0 km/h
1025 31-08-2003 12:51:01 16.4 C 7.96 g/m*3 16.4 C 0 km/h
Sensor: Nr:Datum:Temp:Abs-Feuchte:Windchill:Wind:
Aussen-T/F 1026 31-08-2003 13:03:01 16.4 C 7.96 g/m*3 16.4 C 0 km/h
1027 31-08-2003 13:15:01 17 C 7.96 g/m*3 17 C 0 km/h
1028 31-08-2003 13:27:01 18 C 7.68 g/m*3 18 C 0 km/h
1029 31-08-2003 13:39:02 14.5 C 8.08 g/m*3 14.5 C 0 km/h
1030 31-08-2003 13:51:02 13.6 C 9.77 g/m*3 13.6 C 0 km/h
1031 31-08-2003 14:03:02 13.7 C 10.3 g/m*3 13.7 C 0 km/h
1032 31-08-2003 14:15:02 15.4 C 10.25 g/m*3 15.4 C 0 km/h
1033 31-08-2003 14:27:02 16.9 C 9.92 g/m*3 16.9 C 0 km/h
1034 31-08-2003 14:39:01 18.3 C 10.63 g/m*3 18.3 C 0 km/h
1035 31-08-2003 14:51:01 19.7 C 10.36 g/m*3 19.7 C 0 km/h
1036 31-08-2003 15:03:02 18.8 C 9.5 g/m*3 18.8 C 0 km/h
1037 31-08-2003 15:15:02 15.7 C 8.7 g/m*3 15.7 C 0 km/h
1038 31-08-2003 15:27:02 15.1 C 9.42 g/m*3 15.1 C 0 km/h
1039 31-08-2003 15:39:00 15.9 C 8.94 g/m*3 15.9 C 0 km/h
1040 31-08-2003 15:51:00 17.2 C 8.93 g/m*3 17.2 C 0 km/h
1041 31-08-2003 16:03:01 18.7 C 9.13 g/m*3 18.7 C 0 km/h
1042 31-08-2003 16:15:01 18.7 C 9.45 g/m*3 18.7 C 0 km/h
1043 31-08-2003 16:27:01 17.9 C 9.16 g/m*3 17.9 C 0 km/h
1044 31-08-2003 16:39:02 18 C 7.37 g/m*3 18 C 0 km/h
1045 31-08-2003 16:51:02 19.1 C 7.05 g/m*3 19.1 C 0 km/h
1046 31-08-2003 17:03:02 19.9 C 6.53 g/m*3 19.9 C 0 km/h
1047 31-08-2003 17:15:02 20.3 C 6.51 g/m*3 20.3 C 0 km/h
1048 31-08-2003 17:27:02 21.6 C 6.64 g/m*3 21.6 C 0 km/h
1049 31-08-2003 17:39:02 20 C 6.57 g/m*3 20 C 0 km/h
1050 31-08-2003 17:51:02 19.3 C 6.97 g/m*3 19.3 C 0 km/h
Sensor: Nr:Datum:Temp:Abs-Feuchte:Windchill:Wind:
Aussen-T/F 1051 31-08-2003 18:03:01 18.3 C 7.19 g/m*3 18.3 C 0 km/h
1052 31-08-2003 18:15:01 18.2 C 7.46 g/m*3 18.2 C 0 km/h
1053 31-08-2003 18:27:01 17.8 C 7.59 g/m*3 17.8 C 0 km/h
1054 31-08-2003 18:39:02 18.2 C 7.62 g/m*3 18.2 C 0 km/h
1055 31-08-2003 18:51:02 18.3 C 7.04 g/m*3 18.3 C 0 km/h
1056 31-08-2003 19:03:01 17.5 C 7.01 g/m*3 17.5 C 0 km/h
1057 31-08-2003 19:15:01 17.3 C 7.22 g/m*3 17.3 C 0 km/h
1058 31-08-2003 19:27:01 17.6 C 7.35 g/m*3 17.6 C 0 km/h
1059 31-08-2003 19:39:02 17 C 7.38 g/m*3 17 C 0 km/h
1060 31-08-2003 19:51:02 16.6 C 7.2 g/m*3 16.6 C 0 km/h
1061 31-08-2003 20:03:02 16.4 C 7.68 g/m*3 16.4 C 0 km/h
1062 31-08-2003 20:15:02 16 C 7.36 g/m*3 16 C 0 km/h
1063 31-08-2003 20:27:02 15.4 C 7.23 g/m*3 15.4 C 0 km/h
1064 31-08-2003 20:39:01 14.9 C 7.77 g/m*3 14.9 C 0 km/h
1065 31-08-2003 20:51:01 14.6 C 7.76 g/m*3 14.6 C 0 km/h
1066 31-08-2003 21:04:00 14.6 C 7.88 g/m*3 14.6 C 0 km/h
1067 31-08-2003 21:16:00 14.4 C 8.03 g/m*3 14.4 C 0 km/h
1068 31-08-2003 21:28:00 14.3 C 7.99 g/m*3 14.3 C 0 km/h
1069 31-08-2003 21:40:00 14.2 C 8.18 g/m*3 14.2 C 0 km/h
1070 31-08-2003 21:52:00 14.1 C 8.01 g/m*3 14.1 C 0 km/h
1071 31-08-2003 22:04:00 14.1 C 8.25 g/m*3 14.1 C 0 km/h
1072 31-08-2003 22:16:00 14.2 C 8.06 g/m*3 14.2 C 0 km/h
1073 31-08-2003 22:28:00 14.2 C 7.57 g/m*3 14.2 C 0 km/h
1074 31-08-2003 22:40:00 14.1 C 7.89 g/m*3 14.1 C 0 km/h
1075 31-08-2003 22:52:00 13.8 C 7.74 g/m*3 13.8 C 0 km/h
Sensor: Nr:Datum:Temp:Abs-Feuchte:Windchill:Wind:
Aussen-T/F 1076 31-08-2003 23:04:00 13.7 C 7.7 g/m*3 13.7 C 0 km/h
1077 31-08-2003 23:16:00 13.5 C 7.95 g/m*3 13.5 C 0 km/h
1078 31-08-2003 23:28:00 13.1 C 7.99 g/m*3 13.1 C 0 km/h
1079 31-08-2003 23:40:00 12.6 C 7.85 g/m*3 12.6 C 0 km/h
1080 31-08-2003 23:52:00 12.2 C 7.77 g/m*3 12.2 C 0 km/h
1081 01-09-2003 00:04:00 12 C 7.78 g/m*3 12 C 0 km/h
1082 01-09-2003 00:16:00 11.8 C 8.1 g/m*3 11.8 C 0 km/h
1083 01-09-2003 00:28:00 11.8 C 8.31 g/m*3 11.8 C 0 km/h
1084 01-09-2003 00:40:00 11.5 C 8.26 g/m*3 11.5 C 0 km/h
1085 01-09-2003 00:52:00 11.3 C 8.36 g/m*3 11.3 C 0 km/h
1086 01-09-2003 01:04:00 11.1 C 8.36 g/m*3 11.1 C 0 km/h
1087 01-09-2003 01:16:00 10.9 C 8.36 g/m*3 10.9 C 0 km/h
1088 01-09-2003 01:28:00 10.8 C 8.3 g/m*3 10.8 C 0 km/h
1089 01-09-2003 01:40:00 10.7 C 8.25 g/m*3 10.7 C 0 km/h
1090 01-09-2003 01:52:00 10.5 C 8.15 g/m*3 10.5 C 0 km/h
1091 01-09-2003 02:04:00 10.5 C 8.15 g/m*3 10.5 C 0 km/h
1092 01-09-2003 02:16:00 10.4 C 8.19 g/m*3 10.4 C 0 km/h
1093 01-09-2003 02:28:00 10.4 C 8.29 g/m*3 10.4 C 0 km/h
1094 01-09-2003 02:40:00 10.4 C 8.19 g/m*3 10.4 C 0 km/h
1095 01-09-2003 02:52:00 10.5 C 8.24 g/m*3 10.5 C 0 km/h
1096 01-09-2003 03:04:00 10.3 C 8.24 g/m*3 10.3 C 0 km/h
1097 01-09-2003 03:16:00 10.2 C 8.28 g/m*3 10.2 C 0 km/h
1098 01-09-2003 03:28:00 10.2 C 8.28 g/m*3 10.2 C 0 km/h
1099 01-09-2003 03:40:00 10.2 C 8.28 g/m*3 10.2 C 0 km/h
1100 01-09-2003 03:52:00 10.3 C 8.33 g/m*3 10.3 C 0 km/h
Sensor: Nr:Datum:Temp:Abs-Feuchte:Windchill:Wind:
Aussen-T/F 1101 01-09-2003 04:04:00 10.3 C 8.24 g/m*3 10.3 C 0 km/h
1102 01-09-2003 04:16:00 10.4 C 8.29 g/m*3 10.4 C 0 km/h
1103 01-09-2003 04:28:00 10.4 C 8.29 g/m*3 10.4 C 0 km/h
1104 01-09-2003 04:40:00 10.4 C 8.29 g/m*3 10.4 C 0 km/h
1105 01-09-2003 04:52:00 10.4 C 8.29 g/m*3 10.4 C 0 km/h
1106 01-09-2003 05:04:00 10.4 C 8.29 g/m*3 10.4 C 0 km/h
1107 01-09-2003 05:16:00 10.3 C 8.24 g/m*3 10.3 C 0 km/h
1108 01-09-2003 05:28:00 10.2 C 8.18 g/m*3 10.2 C 0 km/h
1109 01-09-2003 05:40:00 10.2 C 8.18 g/m*3 10.2 C 0 km/h
1110 01-09-2003 05:52:00 10.2 C 8.18 g/m*3 10.2 C 0 km/h
1111 01-09-2003 06:04:00 10.2 C 8.18 g/m*3 10.2 C 0 km/h
1112 01-09-2003 06:16:00 10.1 C 8.23 g/m*3 10.1 C 0 km/h
1113 01-09-2003 06:28:00 10 C 8.08 g/m*3 10 C 0 km/h
1114 01-09-2003 06:40:00 9.7 C 8.2 g/m*3 9.7 C 0 km/h
1115 01-09-2003 06:52:00 9.5 C 8.1 g/m*3 9.5 C 0 km/h
1116 01-09-2003 07:04:00 9.3 C 8 g/m*3 9.3 C 0 km/h
1117 01-09-2003 07:16:00 9.3 C 8 g/m*3 9.3 C 0 km/h
1118 01-09-2003 07:28:00 9.3 C 8.09 g/m*3 9.3 C 0 km/h
1119 01-09-2003 07:40:00 9.5 C 8.19 g/m*3 9.5 C 0 km/h
1120 01-09-2003 07:52:00 9.6 C 8.24 g/m*3 9.6 C 0 km/h
1121 01-09-2003 08:04:00 9.7 C 8.3 g/m*3 9.7 C 0 km/h
1122 01-09-2003 08:16:00 9.6 C 8.24 g/m*3 9.6 C 0 km/h
1123 01-09-2003 08:28:00 9.7 C 8.3 g/m*3 9.7 C 0 km/h
1124 01-09-2003 08:40:00 10 C 8.27 g/m*3 10 C 0 km/h
1125 01-09-2003 08:52:00 10.4 C 8.38 g/m*3 10.4 C 0 km/h
Sensor: Nr:Datum:Temp:Abs-Feuchte:Windchill:Wind:
Aussen-T/F 1126 01-09-2003 09:04:00 10.9 C 8.36 g/m*3 10.9 C 0 km/h
1127 01-09-2003 09:16:00 11.3 C 8.47 g/m*3 11.3 C 0 km/h
1128 01-09-2003 09:28:00 11.5 C 8.37 g/m*3 11.5 C 0 km/h
1129 01-09-2003 09:40:00 11.8 C 8.42 g/m*3 11.8 C 0 km/h
1130 01-09-2003 09:52:00 12 C 8.42 g/m*3 12 C 0 km/h
1131 01-09-2003 10:04:01 12.4 C 8.41 g/m*3 12.4 C 0 km/h
1132 01-09-2003 10:16:01 12.9 C 8.57 g/m*3 12.9 C 0 km/h
1133 01-09-2003 10:28:01 13.1 C 8.1 g/m*3 13.1 C 0 km/h
1134 01-09-2003 10:40:01 13.3 C 7.97 g/m*3 13.3 C 0 km/h
1135 01-09-2003 10:52:01 13.5 C 7.95 g/m*3 13.5 C 0 km/h
1136 01-09-2003 11:04:02 13.9 C 7.91 g/m*3 13.9 C 0 km/h
1137 01-09-2003 11:16:02 14.1 C 7.89 g/m*3 14.1 C 0 km/h
1138 01-09-2003 11:28:02 13.9 C 7.91 g/m*3 13.9 C 0 km/h
1139 01-09-2003 11:40:01 14.3 C 7.86 g/m*3 14.3 C 0 km/h
1140 01-09-2003 11:52:01 15.3 C 7.44 g/m*3 15.3 C 0 km/h
1141 01-09-2003 12:04:02 15.8 C 7.54 g/m*3 15.8 C 0 km/h
1142 01-09-2003 12:16:02 17 C 7.38 g/m*3 17 C 0 km/h
1143 01-09-2003 12:28:02 16.5 C 7.3 g/m*3 16.5 C 0 km/h
1144 01-09-2003 12:40:01 16.1 C 7.4 g/m*3 16.1 C 0 km/h
1145 01-09-2003 12:52:01 15.8 C 7.4 g/m*3 15.8 C 0 km/h
1146 01-09-2003 13:04:01 15.8 C 7.4 g/m*3 15.8 C 0 km/h
1147 01-09-2003 13:16:01 15.8 C 7 g/m*3 15.8 C 0 km/h
1148 01-09-2003 13:28:01 16.4 C 6.7 g/m*3 16.4 C 0 km/h
1149 01-09-2003 13:40:01 16.8 C 6.29 g/m*3 16.8 C 0 km/h
1150 01-09-2003 13:52:01 17.7 C 6.34 g/m*3 17.7 C 0 km/h
Sensor: Nr:Datum:Temp:Abs-Feuchte:Windchill:Wind:
Aussen-T/F 1151 01-09-2003 14:04:01 17.8 C 6.37 g/m*3 17.8 C 0 km/h
1152 01-09-2003 14:16:01 18.3 C 6.57 g/m*3 18.3 C 0 km/h
1153 01-09-2003 14:28:01 18.1 C 6.33 g/m*3 18.1 C 0 km/h
1154 01-09-2003 14:40:01 18 C 6.6 g/m*3 18 C 0 km/h
1155 01-09-2003 14:52:01 17.8 C 6.98 g/m*3 17.8 C 0 km/h
1156 01-09-2003 15:04:01 17.5 C 6.71 g/m*3 17.5 C 0 km/h
1157 01-09-2003 15:16:01 19.1 C 6.56 g/m*3 19.1 C 0 km/h
1158 01-09-2003 15:28:01 19.1 C 6.56 g/m*3 19.1 C 0 km/h
1159 01-09-2003 15:40:02 18.8 C 6.93 g/m*3 18.8 C 0 km/h
1160 01-09-2003 15:52:02 18.5 C 6.65 g/m*3 18.5 C 0 km/h
1161 01-09-2003 16:04:01 18.4 C 6.76 g/m*3 18.4 C 0 km/h
1162 01-09-2003 16:16:01 19.6 C 6.75 g/m*3 19.6 C 0 km/h
1163 01-09-2003 16:28:01 20.5 C 6.23 g/m*3 20.5 C 0 km/h
1164 01-09-2003 16:40:01 19.8 C 6.66 g/m*3 19.8 C 0 km/h
1165 01-09-2003 16:52:01 18.9 C 7.29 g/m*3 18.9 C 0 km/h
1166 01-09-2003 17:04:01 18.2 C 6.68 g/m*3 18.2 C 0 km/h
1167 01-09-2003 17:16:01 18 C 6.76 g/m*3 18 C 0 km/h
1168 01-09-2003 17:28:01 17.9 C 6.87 g/m*3 17.9 C 0 km/h
1169 01-09-2003 17:40:01 17.5 C 6.86 g/m*3 17.5 C 0 km/h
1170 01-09-2003 17:52:01 16.4 C 7.82 g/m*3 16.4 C 0 km/h
1171 01-09-2003 18:04:00 14.4 C 8.41 g/m*3 14.4 C 0 km/h
1172 01-09-2003 18:16:00 14.6 C 9.01 g/m*3 14.6 C 0 km/h
1173 01-09-2003 18:28:00 15.2 C 8.83 g/m*3 15.2 C 0 km/h
1174 01-09-2003 18:40:02 15.6 C 8.51 g/m*3 15.6 C 0 km/h
1175 01-09-2003 18:52:02 15.2 C 7.79 g/m*3 15.2 C 0 km/h
Sensor: Nr:Datum:Temp:Abs-Feuchte:Windchill:Wind:
Aussen-T/F 1176 01-09-2003 19:04:01 14.7 C 8.06 g/m*3 14.7 C 0 km/h
1177 01-09-2003 19:16:01 14.5 C 8.08 g/m*3 14.5 C 0 km/h
1178 01-09-2003 19:28:01 13.8 C 8.34 g/m*3 13.8 C 0 km/h
1179 01-09-2003 19:40:01 13.5 C 8.42 g/m*3 13.5 C 0 km/h
1180 01-09-2003 19:52:01 13.5 C 8.3 g/m*3 13.5 C 0 km/h
1181 01-09-2003 20:04:01 13.4 C 8.25 g/m*3 13.4 C 0 km/h
1182 01-09-2003 20:16:01 13.2 C 8.15 g/m*3 13.2 C 0 km/h
1183 01-09-2003 20:28:01 12.9 C 8.23 g/m*3 12.9 C 0 km/h
1184 01-09-2003 20:41:04 12.5 C 8.14 g/m*3 12.5 C 0 km/h
1185 01-09-2003 20:53:04 12.2 C 8.09 g/m*3 12.2 C 0 km/h
1186 01-09-2003 21:05:04 12.3 C 8.04 g/m*3 12.3 C 0 km/h
1187 01-09-2003 21:17:04 12.3 C 7.93 g/m*3 12.3 C 0 km/h
1188 01-09-2003 21:29:04 12.1 C 7.94 g/m*3 12.1 C 0 km/h
1189 01-09-2003 21:41:04 11.8 C 8 g/m*3 11.8 C 0 km/h
1190 01-09-2003 21:53:04 11.6 C 7.9 g/m*3 11.6 C 0 km/h
1191 01-09-2003 22:05:04 11.7 C 8.05 g/m*3 11.7 C 0 km/h
1192 01-09-2003 22:17:04 12 C 7.99 g/m*3 12 C 0 km/h
1193 01-09-2003 22:29:04 12.4 C 8.19 g/m*3 12.4 C 0 km/h
1194 01-09-2003 22:41:04 12 C 8.53 g/m*3 12 C 0 km/h
1195 01-09-2003 22:53:04 11.6 C 8.73 g/m*3 11.6 C 0 km/h
1196 01-09-2003 23:05:04 11.3 C 8.77 g/m*3 11.3 C 0 km/h
1197 01-09-2003 23:17:04 11 C 8.71 g/m*3 11 C 0 km/h
1198 01-09-2003 23:29:04 10.6 C 8.59 g/m*3 10.6 C 0 km/h
1199 01-09-2003 23:41:04 10.5 C 8.63 g/m*3 10.5 C 0 km/h
1200 01-09-2003 23:53:04 10.3 C 8.62 g/m*3 10.3 C 0 km/h
Sensor: Nr:Datum:Temp:Abs-Feuchte:Windchill:Wind:
Aussen-T/F 1201 02-09-2003 00:05:04 10.2 C 8.56 g/m*3 10.2 C 0 km/h
1202 02-09-2003 00:17:04 10.1 C 8.51 g/m*3 10.1 C 0 km/h
1203 02-09-2003 00:29:04 9.9 C 8.59 g/m*3 9.9 C 0 km/h
1204 02-09-2003 00:41:04 10 C 8.55 g/m*3 10 C 0 km/h
1205 02-09-2003 00:53:04 10 C 8.55 g/m*3 10 C 0 km/h
1206 02-09-2003 01:05:04 9.8 C 8.54 g/m*3 9.8 C 0 km/h
1207 02-09-2003 01:17:04 9.9 C 8.59 g/m*3 9.9 C 0 km/h
1208 02-09-2003 01:29:04 9.7 C 8.48 g/m*3 9.7 C 0 km/h
1209 02-09-2003 01:41:04 9.4 C 8.23 g/m*3 9.4 C 0 km/h
1210 02-09-2003 01:53:04 9.3 C 8.18 g/m*3 9.3 C 0 km/h
1211 02-09-2003 02:05:04 9.2 C 8.13 g/m*3 9.2 C 0 km/h
1212 02-09-2003 02:17:04 9.1 C 8.07 g/m*3 9.1 C 0 km/h
1213 02-09-2003 02:29:04 9.1 C 8.16 g/m*3 9.1 C 0 km/h
1214 02-09-2003 02:41:04 9 C 8.11 g/m*3 9 C 0 km/h
1215 02-09-2003 02:53:04 9 C 8.11 g/m*3 9 C 0 km/h
1216 02-09-2003 03:05:04 9 C 8.11 g/m*3 9 C 0 km/h
1217 02-09-2003 03:17:04 9 C 8.2 g/m*3 9 C 0 km/h
1218 02-09-2003 03:29:04 9.1 C 8.25 g/m*3 9.1 C 0 km/h
1219 02-09-2003 03:41:04 9.1 C 8.25 g/m*3 9.1 C 0 km/h
1220 02-09-2003 03:53:04 9.1 C 8.25 g/m*3 9.1 C 0 km/h
1221 02-09-2003 04:05:04 9 C 8.2 g/m*3 9 C 0 km/h
1222 02-09-2003 04:17:04 9.1 C 8.25 g/m*3 9.1 C 0 km/h
1223 02-09-2003 04:29:04 9.1 C 8.25 g/m*3 9.1 C 0 km/h
1224 02-09-2003 04:41:04 9.2 C 8.3 g/m*3 9.2 C 0 km/h
1225 02-09-2003 04:53:04 9.2 C 8.3 g/m*3 9.2 C 0 km/h
Sensor: Nr:Datum:Temp:Abs-Feuchte:Windchill:Wind:
Aussen-T/F 1226 02-09-2003 05:05:04 9.2 C 8.3 g/m*3 9.2 C 0 km/h
1227 02-09-2003 05:17:04 9 C 8.11 g/m*3 9 C 0 km/h
1228 02-09-2003 05:29:04 9.1 C 8.16 g/m*3 9.1 C 0 km/h
1229 02-09-2003 05:41:04 9 C 8.11 g/m*3 9 C 0 km/h
1230 02-09-2003 05:53:04 8.9 C 8.15 g/m*3 8.9 C 0 km/h
1231 02-09-2003 06:05:04 8.8 C 8.09 g/m*3 8.8 C 0 km/h
1232 02-09-2003 06:17:04 8.7 C 8.04 g/m*3 8.7 C 0 km/h
1233 02-09-2003 06:29:04 8.7 C 8.04 g/m*3 8.7 C 0 km/h
1234 02-09-2003 06:41:04 8.5 C 7.94 g/m*3 8.5 C 0 km/h
1235 02-09-2003 06:53:04 8.6 C 7.99 g/m*3 8.6 C 0 km/h
1236 02-09-2003 07:05:04 8.6 C 7.99 g/m*3 8.6 C 0 km/h
1237 02-09-2003 07:17:04 8.5 C 7.94 g/m*3 8.5 C 0 km/h
1238 02-09-2003 07:29:04 8.6 C 7.99 g/m*3 8.6 C 0 km/h
1239 02-09-2003 07:41:04 9 C 8.11 g/m*3 9 C 0 km/h
1240 02-09-2003 07:53:04 9.2 C 8.22 g/m*3 9.2 C 0 km/h
1241 02-09-2003 08:05:04 9.3 C 8.27 g/m*3 9.3 C 0 km/h
1242 02-09-2003 08:17:04 9.3 C 8.18 g/m*3 9.3 C 0 km/h
1243 02-09-2003 08:29:04 9.4 C 8.23 g/m*3 9.4 C 0 km/h
1244 02-09-2003 08:41:04 9.8 C 8.63 g/m*3 9.8 C 0 km/h
1245 02-09-2003 08:53:04 10.3 C 8.71 g/m*3 10.3 C 0 km/h
1246 02-09-2003 09:05:04 10.5 C 8.83 g/m*3 10.5 C 0 km/h
1247 02-09-2003 09:17:04 11.4 C 9.34 g/m*3 11.4 C 0 km/h
1248 02-09-2003 09:29:04 11.9 C 9.53 g/m*3 11.9 C 0 km/h
1249 02-09-2003 09:41:01 12 C 9.27 g/m*3 12 C 0 km/h
1250 02-09-2003 09:53:01 12.5 C 9.35 g/m*3 12.5 C 0 km/h
Sensor: Nr:Datum:Temp:Abs-Feuchte:Windchill:Wind:
Aussen-T/F 1251 02-09-2003 10:05:00 12.7 C 9.02 g/m*3 12.7 C 0 km/h
1252 02-09-2003 10:17:00 13 C 8.96 g/m*3 13 C 0 km/h
1253 02-09-2003 10:29:00 13.1 C 8.9 g/m*3 13.1 C 0 km/h
1254 02-09-2003 10:41:01 13.6 C 8.59 g/m*3 13.6 C 0 km/h
1255 02-09-2003 10:53:01 13.8 C 8.82 g/m*3 13.8 C 0 km/h
1256 02-09-2003 11:05:01 14.8 C 9.12 g/m*3 14.8 C 0 km/h
1257 02-09-2003 11:17:01 15.4 C 8.8 g/m*3 15.4 C 0 km/h
1258 02-09-2003 11:29:01 15.5 C 8.72 g/m*3 15.5 C 0 km/h
1259 02-09-2003 11:41:01 16.2 C 8.55 g/m*3 16.2 C 0 km/h
1260 02-09-2003 11:53:01 16 C 8.31 g/m*3 16 C 0 km/h
1261 02-09-2003 12:05:01 16 C 8.72 g/m*3 16 C 0 km/h
1262 02-09-2003 12:17:01 17.4 C 8.6 g/m*3 17.4 C 0 km/h
1263 02-09-2003 12:29:01 18.3 C 8.29 g/m*3 18.3 C 0 km/h
1264 02-09-2003 12:41:01 17.7 C 8 g/m*3 17.7 C 0 km/h
1265 02-09-2003 12:53:01 16.8 C 8.01 g/m*3 16.8 C 0 km/h
1266 02-09-2003 13:05:01 17.1 C 8.15 g/m*3 17.1 C 0 km/h
1267 02-09-2003 13:17:01 17.6 C 8.25 g/m*3 17.6 C 0 km/h
1268 02-09-2003 13:29:01 18.6 C 7.48 g/m*3 18.6 C 0 km/h
1269 02-09-2003 13:41:02 19.9 C 7.39 g/m*3 19.9 C 0 km/h
1270 02-09-2003 13:53:02 19.2 C 7.26 g/m*3 19.2 C 0 km/h
1271 02-09-2003 14:05:02 19.5 C 7.05 g/m*3 19.5 C 0 km/h
1272 02-09-2003 14:17:02 20.7 C 7.2 g/m*3 20.7 C 0 km/h
1273 02-09-2003 14:29:02 21.2 C 7.41 g/m*3 21.2 C 0 km/h
1274 02-09-2003 14:41:02 19.9 C 6.7 g/m*3 19.9 C 0 km/h
1275 02-09-2003 14:53:02 20.5 C 6.41 g/m*3 20.5 C 0 km/h
Sensor: Nr:Datum:Temp:Abs-Feuchte:Windchill:Wind:
Aussen-T/F 1276 02-09-2003 15:05:02 20.6 C 6.09 g/m*3 20.6 C 0 km/h
1277 02-09-2003 15:17:02 22.4 C 6.16 g/m*3 22.4 C 0 km/h
1278 02-09-2003 15:29:02 20.7 C 5.76 g/m*3 20.7 C 0 km/h
1279 02-09-2003 15:41:02 21.5 C 6.22 g/m*3 21.5 C 0 km/h
1280 02-09-2003 15:53:02 21.9 C 5.4 g/m*3 21.9 C 0 km/h
1281 02-09-2003 16:05:07 21.8 C 5.37 g/m*3 21.8 C 0 km/h
1282 02-09-2003 16:17:07 22.2 C 5.1 g/m*3 22.2 C 0 km/h
1283 02-09-2003 16:29:07 22.1 C 5.27 g/m*3 22.1 C 0 km/h
1284 02-09-2003 16:41:02 22.9 C 5.52 g/m*3 22.9 C 0 km/h
1285 02-09-2003 16:53:02 22 C 5.24 g/m*3 22 C 0 km/h
1286 02-09-2003 17:05:01 22.1 C 5.27 g/m*3 22.1 C 0 km/h
1287 02-09-2003 17:17:01 22.2 C 5.3 g/m*3 22.2 C 0 km/h
1288 02-09-2003 17:29:01 22.4 C 5.36 g/m*3 22.4 C 0 km/h
1289 02-09-2003 17:41:01 23 C 5.14 g/m*3 23 C 0 km/h
1290 02-09-2003 17:53:01 22.5 C 4.99 g/m*3 22.5 C 0 km/h
1291 02-09-2003 18:05:01 21.5 C 6.03 g/m*3 21.5 C 0 km/h
1292 02-09-2003 18:17:01 20.4 C 6.55 g/m*3 20.4 C 0 km/h
1293 02-09-2003 18:29:01 21.7 C 6.1 g/m*3 21.7 C 0 km/h
1294 02-09-2003 18:41:01 22.3 C 5.33 g/m*3 22.3 C 0 km/h
1295 02-09-2003 18:53:01 21.2 C 5.74 g/m*3 21.2 C 0 km/h
1296 02-09-2003 19:05:02 20.3 C 6.16 g/m*3 20.3 C 0 km/h
1297 02-09-2003 19:17:02 19.4 C 6.34 g/m*3 19.4 C 0 km/h
1298 02-09-2003 19:29:02 18.6 C 6.84 g/m*3 18.6 C 0 km/h
1299 02-09-2003 19:41:02 18.3 C 6.88 g/m*3 18.3 C 0 km/h
1300 02-09-2003 19:53:02 17.8 C 6.98 g/m*3 17.8 C 0 km/h
Sensor: Nr:Datum:Temp:Abs-Feuchte:Windchill:Wind:
Aussen-T/F 1301 02-09-2003 20:05:02 16.9 C 6.76 g/m*3 16.9 C 0 km/h
1302 02-09-2003 20:17:02 15.8 C 6.73 g/m*3 15.8 C 0 km/h
1303 02-09-2003 20:29:02 15.2 C 6.62 g/m*3 15.2 C 0 km/h
1304 02-09-2003 20:41:01 14.7 C 6.8 g/m*3 14.7 C 0 km/h
1305 02-09-2003 20:53:01 14.4 C 6.68 g/m*3 14.4 C 0 km/h
1306 02-09-2003 21:06:02 14.2 C 6.72 g/m*3 14.2 C 0 km/h
1307 02-09-2003 21:18:02 14 C 6.75 g/m*3 14 C 0 km/h
1308 02-09-2003 21:30:02 13.7 C 6.99 g/m*3 13.7 C 0 km/h
1309 02-09-2003 21:42:02 13.4 C 6.86 g/m*3 13.4 C 0 km/h
1310 02-09-2003 21:54:02 13.2 C 6.89 g/m*3 13.2 C 0 km/h
1311 02-09-2003 22:06:02 13.1 C 6.96 g/m*3 13.1 C 0 km/h
1312 02-09-2003 22:18:02 12.8 C 7.17 g/m*3 12.8 C 0 km/h
1313 02-09-2003 22:30:02 12.7 C 7.01 g/m*3 12.7 C 0 km/h
1314 02-09-2003 22:42:02 12.5 C 7.04 g/m*3 12.5 C 0 km/h
1315 02-09-2003 22:54:02 12.4 C 7.1 g/m*3 12.4 C 0 km/h
1316 02-09-2003 23:06:02 12.2 C 7.12 g/m*3 12.2 C 0 km/h
1317 02-09-2003 23:18:02 11.8 C 7.16 g/m*3 11.8 C 0 km/h
1318 02-09-2003 23:30:02 11.7 C 7.11 g/m*3 11.7 C 0 km/h
1319 02-09-2003 23:42:02 11.4 C 7.19 g/m*3 11.4 C 0 km/h
1320 02-09-2003 23:54:02 11.2 C 7.1 g/m*3 11.2 C 0 km/h

Legende:
   Min
   Max


Maximal/Minimal-Werte vom 23.08.2003 - 02.09.2003

Sensor Min Max Avg
Temp
(Aussen-T/F)
8.5 °C
02-09-2003  06:41:04
31.4 °C
25-08-2003  17:21:01
17.6 °C
Abs-Feuchte
(Aussen-T/F)
4.99 g/m*3
02-09-2003  17:53:01
14.43 g/m*3
29-08-2003  13:25:02
9.16 g/m*3
Windchill
(Aussen-T/F)
8.5 C
02-09-2003  06:41:04
31.4 C
25-08-2003  17:21:01
17.59 C

Die Daten stammen von einer Davis Vantage Pro 2 Wetter-Station und werden unter Linux mit der Software wview2wettercgi und aufbereitet. Alle Angaben erfolgen ohne Gewähr für ihre Vollständigkeit oder Richtigkeit.
Kontakt: Rainer Krienke krienke@uni-koblenz.de . Meine Webseiten an der Uni Koblenz oder privat.
Version: $Revision: 0.78 $